<?xml version="1.0" encoding="UTF-8" standalone="no" ?>
<gpx xmlns="http://www.topografix.com/GPX/1/1" xmlns:xsi="http://www.w3.org/2001/XMLSchema-instance" xsi:schemaLocation="http://www.topografix.com/GPX/1/1 http://www.topografix.com/GPX/1/1/gpx.xsd" version="1.1" creator="VisuGPX - https://www.visugpx.com">
  <metadata>
    <name>vtt au dessus de Montbonnot - Biviers- St Ismier</name>
    <desc><![CDATA[sortie VTT depart Montbonnot]]></desc>
  </metadata>
  <trk>
    <name><![CDATA[vtt au dessus de Montbonnot - Biviers- St Ismier_1]]></name>
    <trkseg>
      <trkpt lat="45.22506" lon="5.81948">
        <ele>220.4</ele>
      </trkpt>
      <trkpt lat="45.22445" lon="5.81837">
        <ele>221.6</ele>
      </trkpt>
      <trkpt lat="45.22463" lon="5.81719">
        <ele>228.3</ele>
      </trkpt>
      <trkpt lat="45.22601" lon="5.81518">
        <ele>247.5</ele>
      </trkpt>
      <trkpt lat="45.22669" lon="5.81598">
        <ele>246.1</ele>
      </trkpt>
      <trkpt lat="45.229" lon="5.8177">
        <ele>245.6</ele>
      </trkpt>
      <trkpt lat="45.23023" lon="5.81386">
        <ele>272.7</ele>
      </trkpt>
      <trkpt lat="45.22975" lon="5.81336">
        <ele>272.8</ele>
      </trkpt>
      <trkpt lat="45.23178" lon="5.80962">
        <ele>307.7</ele>
      </trkpt>
      <trkpt lat="45.23428" lon="5.81503">
        <ele>316.4</ele>
      </trkpt>
      <trkpt lat="45.23487" lon="5.81436">
        <ele>321.6</ele>
      </trkpt>
      <trkpt lat="45.23651" lon="5.81668">
        <ele>320</ele>
      </trkpt>
      <trkpt lat="45.23721" lon="5.81694">
        <ele>322</ele>
      </trkpt>
      <trkpt lat="45.2377" lon="5.81812">
        <ele>319.3</ele>
      </trkpt>
      <trkpt lat="45.23844" lon="5.81718">
        <ele>327.4</ele>
      </trkpt>
      <trkpt lat="45.23959" lon="5.819">
        <ele>328.6</ele>
      </trkpt>
      <trkpt lat="45.24053" lon="5.81846">
        <ele>337.2</ele>
      </trkpt>
      <trkpt lat="45.24096" lon="5.81854">
        <ele>340.8</ele>
      </trkpt>
      <trkpt lat="45.2419" lon="5.81812">
        <ele>351.4</ele>
      </trkpt>
      <trkpt lat="45.24288" lon="5.8209">
        <ele>356.3</ele>
      </trkpt>
      <trkpt lat="45.24409" lon="5.82281">
        <ele>356.2</ele>
      </trkpt>
      <trkpt lat="45.24512" lon="5.821">
        <ele>380.1</ele>
      </trkpt>
      <trkpt lat="45.24555" lon="5.82024">
        <ele>388.9</ele>
      </trkpt>
      <trkpt lat="45.24608" lon="5.81923">
        <ele>400.9</ele>
      </trkpt>
      <trkpt lat="45.24649" lon="5.81817">
        <ele>410.8</ele>
      </trkpt>
      <trkpt lat="45.2465" lon="5.81692">
        <ele>418.7</ele>
      </trkpt>
      <trkpt lat="45.247" lon="5.818">
        <ele>416.3</ele>
      </trkpt>
      <trkpt lat="45.24841" lon="5.81785">
        <ele>427.4</ele>
      </trkpt>
      <trkpt lat="45.24879" lon="5.81817">
        <ele>426.7</ele>
      </trkpt>
      <trkpt lat="45.24949" lon="5.81638">
        <ele>458.8</ele>
      </trkpt>
      <trkpt lat="45.25017" lon="5.81407">
        <ele>494.3</ele>
      </trkpt>
      <trkpt lat="45.2507" lon="5.81297">
        <ele>508.9</ele>
      </trkpt>
      <trkpt lat="45.25203" lon="5.81207">
        <ele>535.7</ele>
      </trkpt>
      <trkpt lat="45.2535" lon="5.81139">
        <ele>570.2</ele>
      </trkpt>
      <trkpt lat="45.25446" lon="5.81195">
        <ele>598.5</ele>
      </trkpt>
      <trkpt lat="45.25458" lon="5.81293">
        <ele>593.3</ele>
      </trkpt>
      <trkpt lat="45.25487" lon="5.81357">
        <ele>591.2</ele>
      </trkpt>
      <trkpt lat="45.25573" lon="5.81369">
        <ele>602.9</ele>
      </trkpt>
      <trkpt lat="45.25693" lon="5.81476">
        <ele>595.1</ele>
      </trkpt>
      <trkpt lat="45.25766" lon="5.81457">
        <ele>612.3</ele>
      </trkpt>
      <trkpt lat="45.2585" lon="5.81513">
        <ele>607</ele>
      </trkpt>
      <trkpt lat="45.2582" lon="5.81419">
        <ele>632.1</ele>
      </trkpt>
      <trkpt lat="45.2575" lon="5.8137">
        <ele>629.1</ele>
      </trkpt>
      <trkpt lat="45.25733" lon="5.81326">
        <ele>636.7</ele>
      </trkpt>
      <trkpt lat="45.25644" lon="5.81244">
        <ele>642.9</ele>
      </trkpt>
      <trkpt lat="45.25664" lon="5.81145">
        <ele>657.2</ele>
      </trkpt>
      <trkpt lat="45.25675" lon="5.81206">
        <ele>654.1</ele>
      </trkpt>
      <trkpt lat="45.25778" lon="5.81273">
        <ele>656.5</ele>
      </trkpt>
      <trkpt lat="45.25837" lon="5.81229">
        <ele>673.7</ele>
      </trkpt>
      <trkpt lat="45.25797" lon="5.81108">
        <ele>687.7</ele>
      </trkpt>
      <trkpt lat="45.25731" lon="5.80914">
        <ele>714.4</ele>
      </trkpt>
      <trkpt lat="45.25738" lon="5.80792">
        <ele>738.9</ele>
      </trkpt>
      <trkpt lat="45.25696" lon="5.80632">
        <ele>753.1</ele>
      </trkpt>
      <trkpt lat="45.25705" lon="5.80558">
        <ele>771.8</ele>
      </trkpt>
      <trkpt lat="45.25684" lon="5.805">
        <ele>771.4</ele>
      </trkpt>
      <trkpt lat="45.25656" lon="5.80534">
        <ele>748.2</ele>
      </trkpt>
      <trkpt lat="45.25628" lon="5.80534">
        <ele>733.8</ele>
      </trkpt>
      <trkpt lat="45.25556" lon="5.80631">
        <ele>680.8</ele>
      </trkpt>
      <trkpt lat="45.25566" lon="5.80721">
        <ele>669.7</ele>
      </trkpt>
      <trkpt lat="45.25538" lon="5.8075">
        <ele>654.3</ele>
      </trkpt>
      <trkpt lat="45.25538" lon="5.8075">
        <ele>639.4</ele>
        <time>2017-04-05T16:15:49Z</time>
      </trkpt>
      <trkpt lat="45.2554" lon="5.80741">
        <ele>635.5</ele>
        <time>2017-04-05T16:15:51Z</time>
      </trkpt>
      <trkpt lat="45.25533" lon="5.80741">
        <ele>625.7</ele>
        <time>2017-04-05T16:16:06Z</time>
      </trkpt>
      <trkpt lat="45.25532" lon="5.80747">
        <ele>616.4</ele>
        <time>2017-04-05T16:16:18Z</time>
      </trkpt>
      <trkpt lat="45.25534" lon="5.80758">
        <ele>616.8</ele>
        <time>2017-04-05T16:16:22Z</time>
      </trkpt>
      <trkpt lat="45.25528" lon="5.80765">
        <ele>615.6</ele>
        <time>2017-04-05T16:16:30Z</time>
      </trkpt>
      <trkpt lat="45.25522" lon="5.80769">
        <ele>615</ele>
        <time>2017-04-05T16:16:56Z</time>
      </trkpt>
      <trkpt lat="45.25511" lon="5.80765">
        <ele>614.2</ele>
        <time>2017-04-05T16:17:02Z</time>
      </trkpt>
      <trkpt lat="45.25507" lon="5.80769">
        <ele>612.7</ele>
        <time>2017-04-05T16:17:08Z</time>
      </trkpt>
      <trkpt lat="45.25508" lon="5.80781">
        <ele>611.5</ele>
        <time>2017-04-05T16:17:12Z</time>
      </trkpt>
      <trkpt lat="45.2551" lon="5.80788">
        <ele>611</ele>
        <time>2017-04-05T16:17:14Z</time>
      </trkpt>
      <trkpt lat="45.25506" lon="5.80794">
        <ele>610.1</ele>
        <time>2017-04-05T16:17:18Z</time>
      </trkpt>
      <trkpt lat="45.25501" lon="5.80796">
        <ele>609.7</ele>
        <time>2017-04-05T16:17:20Z</time>
      </trkpt>
      <trkpt lat="45.25495" lon="5.80798">
        <ele>609.2</ele>
        <time>2017-04-05T16:17:22Z</time>
      </trkpt>
      <trkpt lat="45.2549" lon="5.80796">
        <ele>608</ele>
        <time>2017-04-05T16:17:26Z</time>
      </trkpt>
      <trkpt lat="45.25483" lon="5.80794">
        <ele>606.8</ele>
        <time>2017-04-05T16:17:30Z</time>
      </trkpt>
      <trkpt lat="45.25483" lon="5.80803">
        <ele>605.8</ele>
        <time>2017-04-05T16:17:34Z</time>
      </trkpt>
      <trkpt lat="45.25478" lon="5.80809">
        <ele>604.3</ele>
        <time>2017-04-05T16:17:40Z</time>
      </trkpt>
      <trkpt lat="45.25479" lon="5.80815">
        <ele>602.7</ele>
        <time>2017-04-05T16:17:44Z</time>
      </trkpt>
      <trkpt lat="45.25479" lon="5.80823">
        <ele>601.3</ele>
        <time>2017-04-05T16:17:48Z</time>
      </trkpt>
      <trkpt lat="45.25477" lon="5.80832">
        <ele>600.7</ele>
        <time>2017-04-05T16:17:50Z</time>
      </trkpt>
      <trkpt lat="45.25466" lon="5.80844">
        <ele>598.2</ele>
        <time>2017-04-05T16:17:58Z</time>
      </trkpt>
      <trkpt lat="45.25458" lon="5.80846">
        <ele>596.4</ele>
        <time>2017-04-05T16:18:02Z</time>
      </trkpt>
      <trkpt lat="45.25452" lon="5.80848">
        <ele>595.2</ele>
        <time>2017-04-05T16:18:06Z</time>
      </trkpt>
      <trkpt lat="45.25444" lon="5.80851">
        <ele>593.9</ele>
        <time>2017-04-05T16:18:10Z</time>
      </trkpt>
      <trkpt lat="45.25439" lon="5.80865">
        <ele>593</ele>
        <time>2017-04-05T16:18:12Z</time>
      </trkpt>
      <trkpt lat="45.25435" lon="5.80868">
        <ele>591.9</ele>
        <time>2017-04-05T16:18:14Z</time>
      </trkpt>
      <trkpt lat="45.25429" lon="5.80873">
        <ele>589.6</ele>
        <time>2017-04-05T16:18:18Z</time>
      </trkpt>
      <trkpt lat="45.25422" lon="5.80879">
        <ele>588.6</ele>
        <time>2017-04-05T16:18:20Z</time>
      </trkpt>
      <trkpt lat="45.25419" lon="5.80884">
        <ele>587.5</ele>
        <time>2017-04-05T16:18:22Z</time>
      </trkpt>
      <trkpt lat="45.2542" lon="5.80891">
        <ele>584.9</ele>
        <time>2017-04-05T16:18:28Z</time>
      </trkpt>
      <trkpt lat="45.25421" lon="5.80902">
        <ele>584.3</ele>
        <time>2017-04-05T16:18:30Z</time>
      </trkpt>
      <trkpt lat="45.25422" lon="5.80913">
        <ele>583.2</ele>
        <time>2017-04-05T16:18:34Z</time>
      </trkpt>
      <trkpt lat="45.25421" lon="5.80921">
        <ele>581.9</ele>
        <time>2017-04-05T16:18:40Z</time>
      </trkpt>
      <trkpt lat="45.25422" lon="5.8093">
        <ele>581.5</ele>
        <time>2017-04-05T16:18:42Z</time>
      </trkpt>
      <trkpt lat="45.25424" lon="5.80939">
        <ele>580.5</ele>
        <time>2017-04-05T16:18:46Z</time>
      </trkpt>
      <trkpt lat="45.25427" lon="5.80953">
        <ele>579.4</ele>
        <time>2017-04-05T16:18:50Z</time>
      </trkpt>
      <trkpt lat="45.25424" lon="5.80963">
        <ele>578</ele>
        <time>2017-04-05T16:18:56Z</time>
      </trkpt>
      <trkpt lat="45.25427" lon="5.80969">
        <ele>577.5</ele>
        <time>2017-04-05T16:18:58Z</time>
      </trkpt>
      <trkpt lat="45.25423" lon="5.80967">
        <ele>576</ele>
        <time>2017-04-05T16:19:04Z</time>
      </trkpt>
      <trkpt lat="45.25416" lon="5.8096">
        <ele>574.7</ele>
        <time>2017-04-05T16:19:08Z</time>
      </trkpt>
      <trkpt lat="45.25407" lon="5.80959">
        <ele>573.2</ele>
        <time>2017-04-05T16:19:12Z</time>
      </trkpt>
      <trkpt lat="45.25397" lon="5.80958">
        <ele>571.5</ele>
        <time>2017-04-05T16:19:16Z</time>
      </trkpt>
      <trkpt lat="45.25391" lon="5.80962">
        <ele>569.8</ele>
        <time>2017-04-05T16:19:20Z</time>
      </trkpt>
      <trkpt lat="45.25386" lon="5.80966">
        <ele>567.2</ele>
        <time>2017-04-05T16:19:26Z</time>
      </trkpt>
      <trkpt lat="45.25378" lon="5.80963">
        <ele>565.6</ele>
        <time>2017-04-05T16:19:30Z</time>
      </trkpt>
      <trkpt lat="45.25374" lon="5.80962">
        <ele>564.9</ele>
        <time>2017-04-05T16:19:32Z</time>
      </trkpt>
      <trkpt lat="45.25365" lon="5.80964">
        <ele>564.2</ele>
        <time>2017-04-05T16:19:34Z</time>
      </trkpt>
      <trkpt lat="45.25358" lon="5.80964">
        <ele>563.5</ele>
        <time>2017-04-05T16:19:36Z</time>
      </trkpt>
      <trkpt lat="45.25346" lon="5.80961">
        <ele>562.1</ele>
        <time>2017-04-05T16:19:40Z</time>
      </trkpt>
      <trkpt lat="45.25341" lon="5.8096">
        <ele>561.6</ele>
        <time>2017-04-05T16:19:42Z</time>
      </trkpt>
      <trkpt lat="45.25335" lon="5.80959">
        <ele>560.3</ele>
        <time>2017-04-05T16:19:46Z</time>
      </trkpt>
      <trkpt lat="45.2533" lon="5.80959">
        <ele>558.4</ele>
        <time>2017-04-05T16:19:52Z</time>
      </trkpt>
      <trkpt lat="45.25333" lon="5.80973">
        <ele>552.2</ele>
        <time>2017-04-05T16:22:58Z</time>
      </trkpt>
      <trkpt lat="45.25336" lon="5.80979">
        <ele>552.2</ele>
        <time>2017-04-05T16:23:02Z</time>
      </trkpt>
      <trkpt lat="45.25343" lon="5.8099">
        <ele>552.3</ele>
        <time>2017-04-05T16:23:06Z</time>
      </trkpt>
      <trkpt lat="45.25346" lon="5.80999">
        <ele>552.4</ele>
        <time>2017-04-05T16:23:08Z</time>
      </trkpt>
      <trkpt lat="45.25349" lon="5.81006">
        <ele>552.5</ele>
        <time>2017-04-05T16:23:10Z</time>
      </trkpt>
      <trkpt lat="45.25354" lon="5.81015">
        <ele>552.4</ele>
        <time>2017-04-05T16:23:12Z</time>
      </trkpt>
      <trkpt lat="45.2536" lon="5.81023">
        <ele>552.4</ele>
        <time>2017-04-05T16:23:14Z</time>
      </trkpt>
      <trkpt lat="45.25361" lon="5.81029">
        <ele>552.1</ele>
        <time>2017-04-05T16:23:20Z</time>
      </trkpt>
      <trkpt lat="45.25366" lon="5.81038">
        <ele>551.9</ele>
        <time>2017-04-05T16:23:24Z</time>
      </trkpt>
      <trkpt lat="45.25375" lon="5.81056">
        <ele>551.7</ele>
        <time>2017-04-05T16:23:28Z</time>
      </trkpt>
      <trkpt lat="45.2538" lon="5.81069">
        <ele>550.7</ele>
        <time>2017-04-05T16:23:30Z</time>
      </trkpt>
      <trkpt lat="45.25386" lon="5.81076">
        <ele>549.8</ele>
        <time>2017-04-05T16:23:32Z</time>
      </trkpt>
      <trkpt lat="45.2539" lon="5.81083">
        <ele>549.6</ele>
        <time>2017-04-05T16:23:34Z</time>
      </trkpt>
      <trkpt lat="45.25397" lon="5.81094">
        <ele>549.5</ele>
        <time>2017-04-05T16:23:36Z</time>
      </trkpt>
      <trkpt lat="45.25396" lon="5.81101">
        <ele>549.5</ele>
        <time>2017-04-05T16:23:40Z</time>
      </trkpt>
      <trkpt lat="45.25389" lon="5.81107">
        <ele>549.3</ele>
        <time>2017-04-05T16:23:42Z</time>
      </trkpt>
      <trkpt lat="45.25385" lon="5.81109">
        <ele>548.9</ele>
        <time>2017-04-05T16:23:46Z</time>
      </trkpt>
      <trkpt lat="45.2538" lon="5.81102">
        <ele>548.5</ele>
        <time>2017-04-05T16:23:48Z</time>
      </trkpt>
      <trkpt lat="45.25374" lon="5.811">
        <ele>547.4</ele>
        <time>2017-04-05T16:23:54Z</time>
      </trkpt>
      <trkpt lat="45.25366" lon="5.81097">
        <ele>547.3</ele>
        <time>2017-04-05T16:23:56Z</time>
      </trkpt>
      <trkpt lat="45.2536" lon="5.81094">
        <ele>547.1</ele>
        <time>2017-04-05T16:23:58Z</time>
      </trkpt>
      <trkpt lat="45.25352" lon="5.81108">
        <ele>546.5</ele>
        <time>2017-04-05T16:24:02Z</time>
      </trkpt>
      <trkpt lat="45.25342" lon="5.8112">
        <ele>545.9</ele>
        <time>2017-04-05T16:24:04Z</time>
      </trkpt>
      <trkpt lat="45.2533" lon="5.81127">
        <ele>543.1</ele>
        <time>2017-04-05T16:24:06Z</time>
      </trkpt>
      <trkpt lat="45.25326" lon="5.81128">
        <ele>541</ele>
        <time>2017-04-05T16:24:24Z</time>
      </trkpt>
      <trkpt lat="45.25317" lon="5.81132">
        <ele>540.8</ele>
        <time>2017-04-05T16:24:26Z</time>
      </trkpt>
      <trkpt lat="45.25308" lon="5.81133">
        <ele>539.1</ele>
        <time>2017-04-05T16:24:28Z</time>
      </trkpt>
      <trkpt lat="45.25297" lon="5.81135">
        <ele>535</ele>
        <time>2017-04-05T16:24:30Z</time>
      </trkpt>
      <trkpt lat="45.25284" lon="5.81132">
        <ele>531.1</ele>
        <time>2017-04-05T16:24:32Z</time>
      </trkpt>
      <trkpt lat="45.25275" lon="5.81126">
        <ele>529.1</ele>
        <time>2017-04-05T16:24:34Z</time>
      </trkpt>
      <trkpt lat="45.25271" lon="5.81131">
        <ele>528.9</ele>
        <time>2017-04-05T16:24:46Z</time>
      </trkpt>
      <trkpt lat="45.25266" lon="5.81125">
        <ele>525.7</ele>
        <time>2017-04-05T16:28:02Z</time>
      </trkpt>
      <trkpt lat="45.25259" lon="5.81121">
        <ele>525.3</ele>
        <time>2017-04-05T16:28:04Z</time>
      </trkpt>
      <trkpt lat="45.25253" lon="5.81117">
        <ele>524.9</ele>
        <time>2017-04-05T16:28:06Z</time>
      </trkpt>
      <trkpt lat="45.25244" lon="5.81112">
        <ele>522.2</ele>
        <time>2017-04-05T16:28:08Z</time>
      </trkpt>
      <trkpt lat="45.25234" lon="5.81105">
        <ele>520</ele>
        <time>2017-04-05T16:28:10Z</time>
      </trkpt>
      <trkpt lat="45.25221" lon="5.81097">
        <ele>517.6</ele>
        <time>2017-04-05T16:28:12Z</time>
      </trkpt>
      <trkpt lat="45.25207" lon="5.81086">
        <ele>515.6</ele>
        <time>2017-04-05T16:28:14Z</time>
      </trkpt>
      <trkpt lat="45.25192" lon="5.81078">
        <ele>514.6</ele>
        <time>2017-04-05T16:28:16Z</time>
      </trkpt>
      <trkpt lat="45.25176" lon="5.81068">
        <ele>513.2</ele>
        <time>2017-04-05T16:28:18Z</time>
      </trkpt>
      <trkpt lat="45.25164" lon="5.81058">
        <ele>511.7</ele>
        <time>2017-04-05T16:28:20Z</time>
      </trkpt>
      <trkpt lat="45.25155" lon="5.81048">
        <ele>510</ele>
        <time>2017-04-05T16:28:22Z</time>
      </trkpt>
      <trkpt lat="45.25153" lon="5.8104">
        <ele>509.4</ele>
        <time>2017-04-05T16:28:24Z</time>
      </trkpt>
      <trkpt lat="45.25155" lon="5.81032">
        <ele>509.1</ele>
        <time>2017-04-05T16:28:28Z</time>
      </trkpt>
      <trkpt lat="45.25163" lon="5.81026">
        <ele>510.9</ele>
        <time>2017-04-05T16:28:42Z</time>
      </trkpt>
      <trkpt lat="45.25171" lon="5.81024">
        <ele>513</ele>
        <time>2017-04-05T16:28:50Z</time>
      </trkpt>
      <trkpt lat="45.25179" lon="5.81017">
        <ele>514.5</ele>
        <time>2017-04-05T16:28:56Z</time>
      </trkpt>
      <trkpt lat="45.2519" lon="5.81014">
        <ele>515.9</ele>
        <time>2017-04-05T16:29:06Z</time>
      </trkpt>
      <trkpt lat="45.25195" lon="5.81008">
        <ele>516.7</ele>
        <time>2017-04-05T16:29:12Z</time>
      </trkpt>
      <trkpt lat="45.252" lon="5.80998">
        <ele>518.1</ele>
        <time>2017-04-05T16:29:18Z</time>
      </trkpt>
      <trkpt lat="45.25206" lon="5.80985">
        <ele>519.9</ele>
        <time>2017-04-05T16:29:26Z</time>
      </trkpt>
      <trkpt lat="45.2521" lon="5.80977">
        <ele>521.6</ele>
        <time>2017-04-05T16:29:32Z</time>
      </trkpt>
      <trkpt lat="45.25214" lon="5.80972">
        <ele>523.9</ele>
        <time>2017-04-05T16:29:44Z</time>
      </trkpt>
      <trkpt lat="45.25224" lon="5.80964">
        <ele>525.4</ele>
        <time>2017-04-05T16:29:58Z</time>
      </trkpt>
      <trkpt lat="45.25231" lon="5.80962">
        <ele>526.4</ele>
        <time>2017-04-05T16:30:04Z</time>
      </trkpt>
      <trkpt lat="45.25236" lon="5.80961">
        <ele>527.4</ele>
        <time>2017-04-05T16:30:09Z</time>
      </trkpt>
      <trkpt lat="45.25243" lon="5.80962">
        <ele>528.2</ele>
        <time>2017-04-05T16:30:15Z</time>
      </trkpt>
      <trkpt lat="45.25248" lon="5.80948">
        <ele>529.5</ele>
        <time>2017-04-05T16:30:23Z</time>
      </trkpt>
      <trkpt lat="45.25258" lon="5.80936">
        <ele>532.4</ele>
        <time>2017-04-05T16:30:43Z</time>
      </trkpt>
      <trkpt lat="45.25263" lon="5.80929">
        <ele>533.7</ele>
        <time>2017-04-05T16:30:49Z</time>
      </trkpt>
      <trkpt lat="45.25267" lon="5.80925">
        <ele>534.7</ele>
        <time>2017-04-05T16:30:53Z</time>
      </trkpt>
      <trkpt lat="45.2527" lon="5.80918">
        <ele>536.2</ele>
        <time>2017-04-05T16:31:01Z</time>
      </trkpt>
      <trkpt lat="45.25275" lon="5.80911">
        <ele>537.2</ele>
        <time>2017-04-05T16:31:07Z</time>
      </trkpt>
      <trkpt lat="45.25283" lon="5.80902">
        <ele>538.6</ele>
        <time>2017-04-05T16:31:17Z</time>
      </trkpt>
      <trkpt lat="45.2529" lon="5.80895">
        <ele>541.1</ele>
        <time>2017-04-05T16:31:29Z</time>
      </trkpt>
      <trkpt lat="45.25295" lon="5.80888">
        <ele>542</ele>
        <time>2017-04-05T16:31:37Z</time>
      </trkpt>
      <trkpt lat="45.25302" lon="5.80884">
        <ele>544.2</ele>
        <time>2017-04-05T16:31:49Z</time>
      </trkpt>
      <trkpt lat="45.25308" lon="5.80879">
        <ele>545.8</ele>
        <time>2017-04-05T16:31:55Z</time>
      </trkpt>
      <trkpt lat="45.25315" lon="5.80869">
        <ele>547.6</ele>
        <time>2017-04-05T16:32:05Z</time>
      </trkpt>
      <trkpt lat="45.2532" lon="5.80866">
        <ele>548.9</ele>
        <time>2017-04-05T16:32:11Z</time>
      </trkpt>
      <trkpt lat="45.25329" lon="5.80858">
        <ele>551.3</ele>
        <time>2017-04-05T16:32:21Z</time>
      </trkpt>
      <trkpt lat="45.25334" lon="5.80856">
        <ele>552.2</ele>
        <time>2017-04-05T16:32:25Z</time>
      </trkpt>
      <trkpt lat="45.25344" lon="5.80855">
        <ele>555</ele>
        <time>2017-04-05T16:32:37Z</time>
      </trkpt>
      <trkpt lat="45.25352" lon="5.80852">
        <ele>556.7</ele>
        <time>2017-04-05T16:32:43Z</time>
      </trkpt>
      <trkpt lat="45.25358" lon="5.80847">
        <ele>558.3</ele>
        <time>2017-04-05T16:32:49Z</time>
      </trkpt>
      <trkpt lat="45.25366" lon="5.8084">
        <ele>560.6</ele>
        <time>2017-04-05T16:32:59Z</time>
      </trkpt>
      <trkpt lat="45.25371" lon="5.80837">
        <ele>561.8</ele>
        <time>2017-04-05T16:33:05Z</time>
      </trkpt>
      <trkpt lat="45.25379" lon="5.80836">
        <ele>564.1</ele>
        <time>2017-04-05T16:33:17Z</time>
      </trkpt>
      <trkpt lat="45.25384" lon="5.80832">
        <ele>565.5</ele>
        <time>2017-04-05T16:33:23Z</time>
      </trkpt>
      <trkpt lat="45.25388" lon="5.80827">
        <ele>566.6</ele>
        <time>2017-04-05T16:33:27Z</time>
      </trkpt>
      <trkpt lat="45.25394" lon="5.80825">
        <ele>568.3</ele>
        <time>2017-04-05T16:33:35Z</time>
      </trkpt>
      <trkpt lat="45.254" lon="5.80825">
        <ele>569.1</ele>
        <time>2017-04-05T16:33:43Z</time>
      </trkpt>
      <trkpt lat="45.25404" lon="5.80822">
        <ele>570.3</ele>
        <time>2017-04-05T16:33:51Z</time>
      </trkpt>
      <trkpt lat="45.25408" lon="5.80817">
        <ele>571</ele>
        <time>2017-04-05T16:33:59Z</time>
      </trkpt>
      <trkpt lat="45.25412" lon="5.80818">
        <ele>573.6</ele>
        <time>2017-04-05T16:34:13Z</time>
      </trkpt>
      <trkpt lat="45.25417" lon="5.80822">
        <ele>576.2</ele>
        <time>2017-04-05T16:34:29Z</time>
      </trkpt>
      <trkpt lat="45.25413" lon="5.80817">
        <ele>576.4</ele>
        <time>2017-04-05T16:34:49Z</time>
      </trkpt>
      <trkpt lat="45.2541" lon="5.80805">
        <ele>578.2</ele>
        <time>2017-04-05T16:35:59Z</time>
      </trkpt>
      <trkpt lat="45.25407" lon="5.80799">
        <ele>578.6</ele>
        <time>2017-04-05T16:36:03Z</time>
      </trkpt>
      <trkpt lat="45.25403" lon="5.80795">
        <ele>578.8</ele>
        <time>2017-04-05T16:36:05Z</time>
      </trkpt>
      <trkpt lat="45.25397" lon="5.80783">
        <ele>579.3</ele>
        <time>2017-04-05T16:36:11Z</time>
      </trkpt>
      <trkpt lat="45.25389" lon="5.80776">
        <ele>579.6</ele>
        <time>2017-04-05T16:36:15Z</time>
      </trkpt>
      <trkpt lat="45.25384" lon="5.80773">
        <ele>579.6</ele>
        <time>2017-04-05T16:36:17Z</time>
      </trkpt>
      <trkpt lat="45.25377" lon="5.80765">
        <ele>579.1</ele>
        <time>2017-04-05T16:36:19Z</time>
      </trkpt>
      <trkpt lat="45.25378" lon="5.80751">
        <ele>578.6</ele>
        <time>2017-04-05T16:36:21Z</time>
      </trkpt>
      <trkpt lat="45.25378" lon="5.80737">
        <ele>577.8</ele>
        <time>2017-04-05T16:36:23Z</time>
      </trkpt>
      <trkpt lat="45.25379" lon="5.80728">
        <ele>577.5</ele>
        <time>2017-04-05T16:36:25Z</time>
      </trkpt>
      <trkpt lat="45.25378" lon="5.80722">
        <ele>577.5</ele>
        <time>2017-04-05T16:36:27Z</time>
      </trkpt>
      <trkpt lat="45.25377" lon="5.80713">
        <ele>577.6</ele>
        <time>2017-04-05T16:36:29Z</time>
      </trkpt>
      <trkpt lat="45.25378" lon="5.80704">
        <ele>578</ele>
        <time>2017-04-05T16:36:35Z</time>
      </trkpt>
      <trkpt lat="45.2538" lon="5.80696">
        <ele>579.3</ele>
        <time>2017-04-05T16:36:41Z</time>
      </trkpt>
      <trkpt lat="45.25381" lon="5.80688">
        <ele>580.6</ele>
        <time>2017-04-05T16:36:45Z</time>
      </trkpt>
      <trkpt lat="45.25382" lon="5.8068">
        <ele>582.2</ele>
        <time>2017-04-05T16:36:49Z</time>
      </trkpt>
      <trkpt lat="45.25383" lon="5.80672">
        <ele>585</ele>
        <time>2017-04-05T16:36:55Z</time>
      </trkpt>
      <trkpt lat="45.25382" lon="5.80663">
        <ele>586.7</ele>
        <time>2017-04-05T16:36:59Z</time>
      </trkpt>
      <trkpt lat="45.2538" lon="5.80657">
        <ele>588.2</ele>
        <time>2017-04-05T16:37:03Z</time>
      </trkpt>
      <trkpt lat="45.25378" lon="5.80645">
        <ele>591</ele>
        <time>2017-04-05T16:37:09Z</time>
      </trkpt>
      <trkpt lat="45.25375" lon="5.80638">
        <ele>592.3</ele>
        <time>2017-04-05T16:37:13Z</time>
      </trkpt>
      <trkpt lat="45.25372" lon="5.80633">
        <ele>592.7</ele>
        <time>2017-04-05T16:37:15Z</time>
      </trkpt>
      <trkpt lat="45.25371" lon="5.80627">
        <ele>593.5</ele>
        <time>2017-04-05T16:37:19Z</time>
      </trkpt>
      <trkpt lat="45.25366" lon="5.80623">
        <ele>594.9</ele>
        <time>2017-04-05T16:37:27Z</time>
      </trkpt>
      <trkpt lat="45.25362" lon="5.80618">
        <ele>595.3</ele>
        <time>2017-04-05T16:37:29Z</time>
      </trkpt>
      <trkpt lat="45.25356" lon="5.80611">
        <ele>596.3</ele>
        <time>2017-04-05T16:37:33Z</time>
      </trkpt>
      <trkpt lat="45.25351" lon="5.80611">
        <ele>597.9</ele>
        <time>2017-04-05T16:37:45Z</time>
      </trkpt>
      <trkpt lat="45.25344" lon="5.80607">
        <ele>598.5</ele>
        <time>2017-04-05T16:37:53Z</time>
      </trkpt>
      <trkpt lat="45.25338" lon="5.80603">
        <ele>599</ele>
        <time>2017-04-05T16:37:59Z</time>
      </trkpt>
      <trkpt lat="45.25334" lon="5.806">
        <ele>599.6</ele>
        <time>2017-04-05T16:38:03Z</time>
      </trkpt>
      <trkpt lat="45.25327" lon="5.80594">
        <ele>599.9</ele>
        <time>2017-04-05T16:38:05Z</time>
      </trkpt>
      <trkpt lat="45.25323" lon="5.80589">
        <ele>600.2</ele>
        <time>2017-04-05T16:38:07Z</time>
      </trkpt>
      <trkpt lat="45.25317" lon="5.80585">
        <ele>601</ele>
        <time>2017-04-05T16:38:13Z</time>
      </trkpt>
      <trkpt lat="45.25313" lon="5.80583">
        <ele>601.3</ele>
        <time>2017-04-05T16:38:17Z</time>
      </trkpt>
      <trkpt lat="45.25306" lon="5.80581">
        <ele>601.9</ele>
        <time>2017-04-05T16:38:23Z</time>
      </trkpt>
      <trkpt lat="45.253" lon="5.8058">
        <ele>602.1</ele>
        <time>2017-04-05T16:38:25Z</time>
      </trkpt>
      <trkpt lat="45.25294" lon="5.80577">
        <ele>602.8</ele>
        <time>2017-04-05T16:38:31Z</time>
      </trkpt>
      <trkpt lat="45.2529" lon="5.80575">
        <ele>603.5</ele>
        <time>2017-04-05T16:38:35Z</time>
      </trkpt>
      <trkpt lat="45.25283" lon="5.80572">
        <ele>604.4</ele>
        <time>2017-04-05T16:38:39Z</time>
      </trkpt>
      <trkpt lat="45.25278" lon="5.8057">
        <ele>605</ele>
        <time>2017-04-05T16:38:43Z</time>
      </trkpt>
      <trkpt lat="45.25273" lon="5.80568">
        <ele>605.1</ele>
        <time>2017-04-05T16:38:47Z</time>
      </trkpt>
      <trkpt lat="45.25265" lon="5.80561">
        <ele>605.2</ele>
        <time>2017-04-05T16:38:51Z</time>
      </trkpt>
      <trkpt lat="45.25256" lon="5.80559">
        <ele>605.4</ele>
        <time>2017-04-05T16:38:55Z</time>
      </trkpt>
      <trkpt lat="45.25246" lon="5.80556">
        <ele>605.8</ele>
        <time>2017-04-05T16:38:59Z</time>
      </trkpt>
      <trkpt lat="45.2524" lon="5.80554">
        <ele>606</ele>
        <time>2017-04-05T16:39:01Z</time>
      </trkpt>
      <trkpt lat="45.25234" lon="5.80553">
        <ele>606.1</ele>
        <time>2017-04-05T16:39:03Z</time>
      </trkpt>
      <trkpt lat="45.25229" lon="5.80552">
        <ele>606.3</ele>
        <time>2017-04-05T16:39:05Z</time>
      </trkpt>
      <trkpt lat="45.25223" lon="5.80551">
        <ele>606.4</ele>
        <time>2017-04-05T16:39:07Z</time>
      </trkpt>
      <trkpt lat="45.25218" lon="5.80549">
        <ele>606.6</ele>
        <time>2017-04-05T16:39:09Z</time>
      </trkpt>
      <trkpt lat="45.2521" lon="5.80546">
        <ele>607.1</ele>
        <time>2017-04-05T16:39:13Z</time>
      </trkpt>
      <trkpt lat="45.25201" lon="5.80544">
        <ele>607.7</ele>
        <time>2017-04-05T16:39:17Z</time>
      </trkpt>
      <trkpt lat="45.25192" lon="5.80541">
        <ele>608.2</ele>
        <time>2017-04-05T16:39:21Z</time>
      </trkpt>
      <trkpt lat="45.25187" lon="5.80541">
        <ele>608.3</ele>
        <time>2017-04-05T16:39:23Z</time>
      </trkpt>
      <trkpt lat="45.25182" lon="5.80542">
        <ele>609.1</ele>
        <time>2017-04-05T16:39:29Z</time>
      </trkpt>
      <trkpt lat="45.25176" lon="5.80543">
        <ele>609.9</ele>
        <time>2017-04-05T16:39:35Z</time>
      </trkpt>
      <trkpt lat="45.25169" lon="5.80546">
        <ele>610.6</ele>
        <time>2017-04-05T16:39:39Z</time>
      </trkpt>
      <trkpt lat="45.25162" lon="5.80547">
        <ele>611.2</ele>
        <time>2017-04-05T16:39:43Z</time>
      </trkpt>
      <trkpt lat="45.25155" lon="5.80546">
        <ele>611.6</ele>
        <time>2017-04-05T16:39:47Z</time>
      </trkpt>
      <trkpt lat="45.25158" lon="5.80539">
        <ele>611.9</ele>
        <time>2017-04-05T16:39:51Z</time>
      </trkpt>
      <trkpt lat="45.25164" lon="5.80531">
        <ele>612.3</ele>
        <time>2017-04-05T16:39:55Z</time>
      </trkpt>
      <trkpt lat="45.2517" lon="5.80525">
        <ele>612.5</ele>
        <time>2017-04-05T16:39:57Z</time>
      </trkpt>
      <trkpt lat="45.25177" lon="5.80523">
        <ele>612.9</ele>
        <time>2017-04-05T16:40:01Z</time>
      </trkpt>
      <trkpt lat="45.25183" lon="5.80518">
        <ele>613.2</ele>
        <time>2017-04-05T16:40:05Z</time>
      </trkpt>
      <trkpt lat="45.25189" lon="5.8051">
        <ele>613.7</ele>
        <time>2017-04-05T16:40:09Z</time>
      </trkpt>
      <trkpt lat="45.25194" lon="5.80504">
        <ele>614.1</ele>
        <time>2017-04-05T16:40:13Z</time>
      </trkpt>
      <trkpt lat="45.25198" lon="5.80499">
        <ele>614.9</ele>
        <time>2017-04-05T16:40:17Z</time>
      </trkpt>
      <trkpt lat="45.25201" lon="5.80491">
        <ele>616.3</ele>
        <time>2017-04-05T16:40:23Z</time>
      </trkpt>
      <trkpt lat="45.25207" lon="5.80487">
        <ele>616.7</ele>
        <time>2017-04-05T16:40:25Z</time>
      </trkpt>
      <trkpt lat="45.25212" lon="5.80485">
        <ele>617.6</ele>
        <time>2017-04-05T16:40:29Z</time>
      </trkpt>
      <trkpt lat="45.25217" lon="5.80477">
        <ele>618.5</ele>
        <time>2017-04-05T16:40:35Z</time>
      </trkpt>
      <trkpt lat="45.25221" lon="5.80472">
        <ele>619.3</ele>
        <time>2017-04-05T16:40:39Z</time>
      </trkpt>
      <trkpt lat="45.25227" lon="5.80468">
        <ele>620.4</ele>
        <time>2017-04-05T16:40:45Z</time>
      </trkpt>
      <trkpt lat="45.2523" lon="5.80464">
        <ele>621.9</ele>
        <time>2017-04-05T16:40:55Z</time>
      </trkpt>
      <trkpt lat="45.25236" lon="5.80461">
        <ele>623.1</ele>
        <time>2017-04-05T16:41:03Z</time>
      </trkpt>
      <trkpt lat="45.25242" lon="5.80455">
        <ele>624.4</ele>
        <time>2017-04-05T16:41:13Z</time>
      </trkpt>
      <trkpt lat="45.25247" lon="5.8045">
        <ele>625.8</ele>
        <time>2017-04-05T16:41:19Z</time>
      </trkpt>
      <trkpt lat="45.25254" lon="5.80444">
        <ele>627.4</ele>
        <time>2017-04-05T16:41:25Z</time>
      </trkpt>
      <trkpt lat="45.25259" lon="5.80441">
        <ele>628.9</ele>
        <time>2017-04-05T16:41:33Z</time>
      </trkpt>
      <trkpt lat="45.25266" lon="5.80437">
        <ele>630</ele>
        <time>2017-04-05T16:41:41Z</time>
      </trkpt>
      <trkpt lat="45.2527" lon="5.80432">
        <ele>630.5</ele>
        <time>2017-04-05T16:41:45Z</time>
      </trkpt>
      <trkpt lat="45.25276" lon="5.8043">
        <ele>630.8</ele>
        <time>2017-04-05T16:41:49Z</time>
      </trkpt>
      <trkpt lat="45.2528" lon="5.80422">
        <ele>631.4</ele>
        <time>2017-04-05T16:42:03Z</time>
      </trkpt>
      <trkpt lat="45.25284" lon="5.80415">
        <ele>632.2</ele>
        <time>2017-04-05T16:42:07Z</time>
      </trkpt>
      <trkpt lat="45.25288" lon="5.80409">
        <ele>633.6</ele>
        <time>2017-04-05T16:42:15Z</time>
      </trkpt>
      <trkpt lat="45.25292" lon="5.80403">
        <ele>634.7</ele>
        <time>2017-04-05T16:42:21Z</time>
      </trkpt>
      <trkpt lat="45.25295" lon="5.80397">
        <ele>635.5</ele>
        <time>2017-04-05T16:42:25Z</time>
      </trkpt>
      <trkpt lat="45.25299" lon="5.80393">
        <ele>636.7</ele>
        <time>2017-04-05T16:42:31Z</time>
      </trkpt>
      <trkpt lat="45.25301" lon="5.80387">
        <ele>638.9</ele>
        <time>2017-04-05T16:42:43Z</time>
      </trkpt>
      <trkpt lat="45.25301" lon="5.8038">
        <ele>640.3</ele>
        <time>2017-04-05T16:42:53Z</time>
      </trkpt>
      <trkpt lat="45.25303" lon="5.80373">
        <ele>640.9</ele>
        <time>2017-04-05T16:43:05Z</time>
      </trkpt>
      <trkpt lat="45.25306" lon="5.80364">
        <ele>641.4</ele>
        <time>2017-04-05T16:43:09Z</time>
      </trkpt>
      <trkpt lat="45.25308" lon="5.80357">
        <ele>644.1</ele>
        <time>2017-04-05T16:43:23Z</time>
      </trkpt>
      <trkpt lat="45.25304" lon="5.8035">
        <ele>647.1</ele>
        <time>2017-04-05T16:43:41Z</time>
      </trkpt>
      <trkpt lat="45.25301" lon="5.80343">
        <ele>647.7</ele>
        <time>2017-04-05T16:43:47Z</time>
      </trkpt>
      <trkpt lat="45.25301" lon="5.80335">
        <ele>649.7</ele>
        <time>2017-04-05T16:44:11Z</time>
      </trkpt>
      <trkpt lat="45.253" lon="5.80328">
        <ele>653.9</ele>
        <time>2017-04-05T16:44:25Z</time>
      </trkpt>
      <trkpt lat="45.25301" lon="5.80318">
        <ele>656.5</ele>
        <time>2017-04-05T16:44:33Z</time>
      </trkpt>
      <trkpt lat="45.25295" lon="5.80308">
        <ele>659.1</ele>
        <time>2017-04-05T16:44:43Z</time>
      </trkpt>
      <trkpt lat="45.25292" lon="5.80299">
        <ele>661.9</ele>
        <time>2017-04-05T16:44:57Z</time>
      </trkpt>
      <trkpt lat="45.25289" lon="5.80292">
        <ele>662.7</ele>
        <time>2017-04-05T16:45:01Z</time>
      </trkpt>
      <trkpt lat="45.25285" lon="5.80287">
        <ele>664.6</ele>
        <time>2017-04-05T16:45:07Z</time>
      </trkpt>
      <trkpt lat="45.2528" lon="5.80286">
        <ele>665.7</ele>
        <time>2017-04-05T16:45:13Z</time>
      </trkpt>
      <trkpt lat="45.25275" lon="5.80285">
        <ele>666.5</ele>
        <time>2017-04-05T16:45:21Z</time>
      </trkpt>
      <trkpt lat="45.2527" lon="5.80284">
        <ele>667.2</ele>
        <time>2017-04-05T16:45:27Z</time>
      </trkpt>
      <trkpt lat="45.25263" lon="5.80281">
        <ele>668.6</ele>
        <time>2017-04-05T16:45:35Z</time>
      </trkpt>
      <trkpt lat="45.25258" lon="5.80278">
        <ele>668.8</ele>
        <time>2017-04-05T16:45:37Z</time>
      </trkpt>
      <trkpt lat="45.25254" lon="5.80277">
        <ele>669.1</ele>
        <time>2017-04-05T16:45:44Z</time>
      </trkpt>
      <trkpt lat="45.25249" lon="5.80276">
        <ele>668.8</ele>
        <time>2017-04-05T16:45:52Z</time>
      </trkpt>
      <trkpt lat="45.25245" lon="5.80272">
        <ele>669.2</ele>
        <time>2017-04-05T16:45:56Z</time>
      </trkpt>
      <trkpt lat="45.25239" lon="5.80269">
        <ele>669.5</ele>
        <time>2017-04-05T16:46:04Z</time>
      </trkpt>
      <trkpt lat="45.25234" lon="5.80268">
        <ele>670.5</ele>
        <time>2017-04-05T16:46:10Z</time>
      </trkpt>
      <trkpt lat="45.25226" lon="5.80265">
        <ele>672.3</ele>
        <time>2017-04-05T16:46:18Z</time>
      </trkpt>
      <trkpt lat="45.25219" lon="5.80261">
        <ele>676.1</ele>
        <time>2017-04-05T16:46:36Z</time>
      </trkpt>
      <trkpt lat="45.25214" lon="5.80263">
        <ele>678.9</ele>
        <time>2017-04-05T16:46:46Z</time>
      </trkpt>
      <trkpt lat="45.25209" lon="5.80265">
        <ele>680.9</ele>
        <time>2017-04-05T16:46:54Z</time>
      </trkpt>
      <trkpt lat="45.25205" lon="5.80262">
        <ele>684.3</ele>
        <time>2017-04-05T16:47:22Z</time>
      </trkpt>
      <trkpt lat="45.252" lon="5.80259">
        <ele>686</ele>
        <time>2017-04-05T16:47:38Z</time>
      </trkpt>
      <trkpt lat="45.25195" lon="5.80258">
        <ele>689.2</ele>
        <time>2017-04-05T16:48:10Z</time>
      </trkpt>
      <trkpt lat="45.25192" lon="5.80252">
        <ele>692.7</ele>
        <time>2017-04-05T16:49:34Z</time>
      </trkpt>
      <trkpt lat="45.25186" lon="5.8024">
        <ele>694.5</ele>
        <time>2017-04-05T16:50:02Z</time>
      </trkpt>
      <trkpt lat="45.25181" lon="5.80232">
        <ele>694.2</ele>
        <time>2017-04-05T16:50:04Z</time>
      </trkpt>
      <trkpt lat="45.25179" lon="5.80225">
        <ele>693.8</ele>
        <time>2017-04-05T16:50:06Z</time>
      </trkpt>
      <trkpt lat="45.25176" lon="5.80215">
        <ele>693.4</ele>
        <time>2017-04-05T16:50:10Z</time>
      </trkpt>
      <trkpt lat="45.25177" lon="5.80208">
        <ele>693</ele>
        <time>2017-04-05T16:50:14Z</time>
      </trkpt>
      <trkpt lat="45.2518" lon="5.80201">
        <ele>692.5</ele>
        <time>2017-04-05T16:50:18Z</time>
      </trkpt>
      <trkpt lat="45.25182" lon="5.80188">
        <ele>690.9</ele>
        <time>2017-04-05T16:50:25Z</time>
      </trkpt>
      <trkpt lat="45.25183" lon="5.8018">
        <ele>689.9</ele>
        <time>2017-04-05T16:50:28Z</time>
      </trkpt>
      <trkpt lat="45.25175" lon="5.80175">
        <ele>680.3</ele>
        <time>2017-04-05T16:51:17Z</time>
      </trkpt>
      <trkpt lat="45.25163" lon="5.80168">
        <ele>679.5</ele>
        <time>2017-04-05T16:51:19Z</time>
      </trkpt>
      <trkpt lat="45.25151" lon="5.80161">
        <ele>678.4</ele>
        <time>2017-04-05T16:51:21Z</time>
      </trkpt>
      <trkpt lat="45.25139" lon="5.80154">
        <ele>677.2</ele>
        <time>2017-04-05T16:51:23Z</time>
      </trkpt>
      <trkpt lat="45.25134" lon="5.80151">
        <ele>673.1</ele>
        <time>2017-04-05T16:51:29Z</time>
      </trkpt>
      <trkpt lat="45.25139" lon="5.80154">
        <ele>667.3</ele>
        <time>2017-04-05T16:51:39Z</time>
      </trkpt>
      <trkpt lat="45.25134" lon="5.80155">
        <ele>661.2</ele>
        <time>2017-04-05T16:51:49Z</time>
      </trkpt>
      <trkpt lat="45.25122" lon="5.80153">
        <ele>659.4</ele>
        <time>2017-04-05T16:51:51Z</time>
      </trkpt>
      <trkpt lat="45.25108" lon="5.8015">
        <ele>656.8</ele>
        <time>2017-04-05T16:51:54Z</time>
      </trkpt>
      <trkpt lat="45.25101" lon="5.80143">
        <ele>652.4</ele>
        <time>2017-04-05T16:51:58Z</time>
      </trkpt>
      <trkpt lat="45.25095" lon="5.8014">
        <ele>650.2</ele>
        <time>2017-04-05T16:52:00Z</time>
      </trkpt>
      <trkpt lat="45.25086" lon="5.80135">
        <ele>647.9</ele>
        <time>2017-04-05T16:52:02Z</time>
      </trkpt>
      <trkpt lat="45.25083" lon="5.80131">
        <ele>646.3</ele>
        <time>2017-04-05T16:52:04Z</time>
      </trkpt>
      <trkpt lat="45.25077" lon="5.8012">
        <ele>644.2</ele>
        <time>2017-04-05T16:52:06Z</time>
      </trkpt>
      <trkpt lat="45.25074" lon="5.80108">
        <ele>642.1</ele>
        <time>2017-04-05T16:52:08Z</time>
      </trkpt>
      <trkpt lat="45.25072" lon="5.80101">
        <ele>636.3</ele>
        <time>2017-04-05T16:52:16Z</time>
      </trkpt>
      <trkpt lat="45.25068" lon="5.8009">
        <ele>634.9</ele>
        <time>2017-04-05T16:52:18Z</time>
      </trkpt>
      <trkpt lat="45.25066" lon="5.80085">
        <ele>633.3</ele>
        <time>2017-04-05T16:52:20Z</time>
      </trkpt>
      <trkpt lat="45.25063" lon="5.80079">
        <ele>630.4</ele>
        <time>2017-04-05T16:53:14Z</time>
      </trkpt>
      <trkpt lat="45.25051" lon="5.80074">
        <ele>632.3</ele>
        <time>2017-04-05T16:53:48Z</time>
      </trkpt>
      <trkpt lat="45.25043" lon="5.80069">
        <ele>632.2</ele>
        <time>2017-04-05T16:53:50Z</time>
      </trkpt>
      <trkpt lat="45.25038" lon="5.80068">
        <ele>630.7</ele>
        <time>2017-04-05T16:54:04Z</time>
      </trkpt>
      <trkpt lat="45.25029" lon="5.80078">
        <ele>630</ele>
        <time>2017-04-05T16:54:08Z</time>
      </trkpt>
      <trkpt lat="45.25022" lon="5.80083">
        <ele>625.6</ele>
        <time>2017-04-05T16:54:10Z</time>
      </trkpt>
      <trkpt lat="45.25015" lon="5.80087">
        <ele>622.9</ele>
        <time>2017-04-05T16:54:12Z</time>
      </trkpt>
      <trkpt lat="45.25009" lon="5.8009">
        <ele>621.6</ele>
        <time>2017-04-05T16:54:14Z</time>
      </trkpt>
      <trkpt lat="45.25003" lon="5.80094">
        <ele>620.7</ele>
        <time>2017-04-05T16:54:16Z</time>
      </trkpt>
      <trkpt lat="45.24998" lon="5.80099">
        <ele>619.3</ele>
        <time>2017-04-05T16:54:18Z</time>
      </trkpt>
      <trkpt lat="45.24993" lon="5.80105">
        <ele>618.4</ele>
        <time>2017-04-05T16:54:20Z</time>
      </trkpt>
      <trkpt lat="45.24988" lon="5.80109">
        <ele>617.6</ele>
        <time>2017-04-05T16:54:22Z</time>
      </trkpt>
      <trkpt lat="45.24983" lon="5.8011">
        <ele>616.6</ele>
        <time>2017-04-05T16:54:24Z</time>
      </trkpt>
      <trkpt lat="45.24978" lon="5.80111">
        <ele>615.4</ele>
        <time>2017-04-05T16:54:26Z</time>
      </trkpt>
      <trkpt lat="45.24971" lon="5.80112">
        <ele>614.2</ele>
        <time>2017-04-05T16:54:28Z</time>
      </trkpt>
      <trkpt lat="45.24961" lon="5.80117">
        <ele>613.1</ele>
        <time>2017-04-05T16:54:30Z</time>
      </trkpt>
      <trkpt lat="45.2495" lon="5.8012">
        <ele>604.2</ele>
        <time>2017-04-05T16:54:32Z</time>
      </trkpt>
      <trkpt lat="45.24943" lon="5.80124">
        <ele>600.7</ele>
        <time>2017-04-05T16:54:34Z</time>
      </trkpt>
      <trkpt lat="45.24934" lon="5.8013">
        <ele>593.8</ele>
        <time>2017-04-05T16:54:36Z</time>
      </trkpt>
      <trkpt lat="45.24925" lon="5.80134">
        <ele>587.6</ele>
        <time>2017-04-05T16:54:38Z</time>
      </trkpt>
      <trkpt lat="45.24913" lon="5.80139">
        <ele>582</ele>
        <time>2017-04-05T16:54:40Z</time>
      </trkpt>
      <trkpt lat="45.249" lon="5.80145">
        <ele>578.4</ele>
        <time>2017-04-05T16:54:42Z</time>
      </trkpt>
      <trkpt lat="45.24892" lon="5.80145">
        <ele>576.8</ele>
        <time>2017-04-05T16:54:44Z</time>
      </trkpt>
      <trkpt lat="45.24881" lon="5.80142">
        <ele>571</ele>
        <time>2017-04-05T16:54:46Z</time>
      </trkpt>
      <trkpt lat="45.24868" lon="5.80143">
        <ele>566</ele>
        <time>2017-04-05T16:54:48Z</time>
      </trkpt>
      <trkpt lat="45.24855" lon="5.80142">
        <ele>562.2</ele>
        <time>2017-04-05T16:54:50Z</time>
      </trkpt>
      <trkpt lat="45.24839" lon="5.80135">
        <ele>559.3</ele>
        <time>2017-04-05T16:54:52Z</time>
      </trkpt>
      <trkpt lat="45.24826" lon="5.80126">
        <ele>556.6</ele>
        <time>2017-04-05T16:54:54Z</time>
      </trkpt>
      <trkpt lat="45.24813" lon="5.8012">
        <ele>555.3</ele>
        <time>2017-04-05T16:54:56Z</time>
      </trkpt>
      <trkpt lat="45.248" lon="5.80118">
        <ele>554.8</ele>
        <time>2017-04-05T16:54:58Z</time>
      </trkpt>
      <trkpt lat="45.24786" lon="5.8012">
        <ele>553</ele>
        <time>2017-04-05T16:55:00Z</time>
      </trkpt>
      <trkpt lat="45.24774" lon="5.80123">
        <ele>549.2</ele>
        <time>2017-04-05T16:55:02Z</time>
      </trkpt>
      <trkpt lat="45.24767" lon="5.80125">
        <ele>546.6</ele>
        <time>2017-04-05T16:55:04Z</time>
      </trkpt>
      <trkpt lat="45.24756" lon="5.80122">
        <ele>545.6</ele>
        <time>2017-04-05T16:55:06Z</time>
      </trkpt>
      <trkpt lat="45.24748" lon="5.8011">
        <ele>545.2</ele>
        <time>2017-04-05T16:55:08Z</time>
      </trkpt>
      <trkpt lat="45.24739" lon="5.80102">
        <ele>544.4</ele>
        <time>2017-04-05T16:55:10Z</time>
      </trkpt>
      <trkpt lat="45.24731" lon="5.80097">
        <ele>542.2</ele>
        <time>2017-04-05T16:55:12Z</time>
      </trkpt>
      <trkpt lat="45.24724" lon="5.80091">
        <ele>540.3</ele>
        <time>2017-04-05T16:55:14Z</time>
      </trkpt>
      <trkpt lat="45.24718" lon="5.80081">
        <ele>538.5</ele>
        <time>2017-04-05T16:55:16Z</time>
      </trkpt>
      <trkpt lat="45.24714" lon="5.80073">
        <ele>537.8</ele>
        <time>2017-04-05T16:55:18Z</time>
      </trkpt>
      <trkpt lat="45.2471" lon="5.80065">
        <ele>537.5</ele>
        <time>2017-04-05T16:55:20Z</time>
      </trkpt>
      <trkpt lat="45.24706" lon="5.80057">
        <ele>537.4</ele>
        <time>2017-04-05T16:55:22Z</time>
      </trkpt>
      <trkpt lat="45.24705" lon="5.80047">
        <ele>537.2</ele>
        <time>2017-04-05T16:55:26Z</time>
      </trkpt>
      <trkpt lat="45.24704" lon="5.80039">
        <ele>537.2</ele>
        <time>2017-04-05T16:55:28Z</time>
      </trkpt>
      <trkpt lat="45.24702" lon="5.80028">
        <ele>537.6</ele>
        <time>2017-04-05T16:55:32Z</time>
      </trkpt>
      <trkpt lat="45.24696" lon="5.80018">
        <ele>538.1</ele>
        <time>2017-04-05T16:55:36Z</time>
      </trkpt>
      <trkpt lat="45.24691" lon="5.80013">
        <ele>538.6</ele>
        <time>2017-04-05T16:55:40Z</time>
      </trkpt>
      <trkpt lat="45.24685" lon="5.80004">
        <ele>539.2</ele>
        <time>2017-04-05T16:55:44Z</time>
      </trkpt>
      <trkpt lat="45.24681" lon="5.79995">
        <ele>539.8</ele>
        <time>2017-04-05T16:55:48Z</time>
      </trkpt>
      <trkpt lat="45.24678" lon="5.7999">
        <ele>540.2</ele>
        <time>2017-04-05T16:55:50Z</time>
      </trkpt>
      <trkpt lat="45.24673" lon="5.79983">
        <ele>541</ele>
        <time>2017-04-05T16:55:54Z</time>
      </trkpt>
      <trkpt lat="45.24669" lon="5.79978">
        <ele>541.3</ele>
        <time>2017-04-05T16:55:56Z</time>
      </trkpt>
      <trkpt lat="45.24667" lon="5.79972">
        <ele>541.7</ele>
        <time>2017-04-05T16:56:00Z</time>
      </trkpt>
      <trkpt lat="45.2466" lon="5.79968">
        <ele>542.2</ele>
        <time>2017-04-05T16:56:06Z</time>
      </trkpt>
      <trkpt lat="45.24656" lon="5.79964">
        <ele>542.4</ele>
        <time>2017-04-05T16:56:08Z</time>
      </trkpt>
      <trkpt lat="45.2465" lon="5.79958">
        <ele>542.9</ele>
        <time>2017-04-05T16:56:12Z</time>
      </trkpt>
      <trkpt lat="45.24645" lon="5.79953">
        <ele>543.4</ele>
        <time>2017-04-05T16:56:18Z</time>
      </trkpt>
      <trkpt lat="45.24641" lon="5.79946">
        <ele>547.6</ele>
        <time>2017-04-05T16:57:40Z</time>
      </trkpt>
      <trkpt lat="45.24636" lon="5.7994">
        <ele>547.3</ele>
        <time>2017-04-05T16:57:42Z</time>
      </trkpt>
      <trkpt lat="45.24628" lon="5.79935">
        <ele>546.3</ele>
        <time>2017-04-05T16:57:46Z</time>
      </trkpt>
      <trkpt lat="45.24619" lon="5.79929">
        <ele>545.4</ele>
        <time>2017-04-05T16:57:50Z</time>
      </trkpt>
      <trkpt lat="45.24615" lon="5.79926">
        <ele>545</ele>
        <time>2017-04-05T16:57:52Z</time>
      </trkpt>
      <trkpt lat="45.2461" lon="5.79922">
        <ele>544.6</ele>
        <time>2017-04-05T16:57:54Z</time>
      </trkpt>
      <trkpt lat="45.24604" lon="5.7992">
        <ele>544.1</ele>
        <time>2017-04-05T16:57:56Z</time>
      </trkpt>
      <trkpt lat="45.24596" lon="5.79924">
        <ele>540.9</ele>
        <time>2017-04-05T16:57:58Z</time>
      </trkpt>
      <trkpt lat="45.24585" lon="5.79929">
        <ele>539</ele>
        <time>2017-04-05T16:58:00Z</time>
      </trkpt>
      <trkpt lat="45.24569" lon="5.79929">
        <ele>537.4</ele>
        <time>2017-04-05T16:58:02Z</time>
      </trkpt>
      <trkpt lat="45.24556" lon="5.79927">
        <ele>536.9</ele>
        <time>2017-04-05T16:58:04Z</time>
      </trkpt>
      <trkpt lat="45.24544" lon="5.79924">
        <ele>537.8</ele>
        <time>2017-04-05T16:58:06Z</time>
      </trkpt>
      <trkpt lat="45.24529" lon="5.79918">
        <ele>538</ele>
        <time>2017-04-05T16:58:08Z</time>
      </trkpt>
      <trkpt lat="45.24512" lon="5.79914">
        <ele>538.9</ele>
        <time>2017-04-05T16:58:10Z</time>
      </trkpt>
      <trkpt lat="45.24497" lon="5.79922">
        <ele>538.2</ele>
        <time>2017-04-05T16:58:12Z</time>
      </trkpt>
      <trkpt lat="45.24483" lon="5.79926">
        <ele>537</ele>
        <time>2017-04-05T16:58:14Z</time>
      </trkpt>
      <trkpt lat="45.24472" lon="5.79924">
        <ele>536</ele>
        <time>2017-04-05T16:58:16Z</time>
      </trkpt>
      <trkpt lat="45.24463" lon="5.79915">
        <ele>534.4</ele>
        <time>2017-04-05T16:58:18Z</time>
      </trkpt>
      <trkpt lat="45.24462" lon="5.79908">
        <ele>532.7</ele>
        <time>2017-04-05T16:58:20Z</time>
      </trkpt>
      <trkpt lat="45.24456" lon="5.79881">
        <ele>531.5</ele>
        <time>2017-04-05T16:58:24Z</time>
      </trkpt>
      <trkpt lat="45.24454" lon="5.79866">
        <ele>531.2</ele>
        <time>2017-04-05T16:58:26Z</time>
      </trkpt>
      <trkpt lat="45.24454" lon="5.79855">
        <ele>530.9</ele>
        <time>2017-04-05T16:58:28Z</time>
      </trkpt>
      <trkpt lat="45.24455" lon="5.79845">
        <ele>530.8</ele>
        <time>2017-04-05T16:58:30Z</time>
      </trkpt>
      <trkpt lat="45.24456" lon="5.79838">
        <ele>530.6</ele>
        <time>2017-04-05T16:58:32Z</time>
      </trkpt>
      <trkpt lat="45.24456" lon="5.79825">
        <ele>530.4</ele>
        <time>2017-04-05T16:58:36Z</time>
      </trkpt>
      <trkpt lat="45.24454" lon="5.79819">
        <ele>530.3</ele>
        <time>2017-04-05T16:58:38Z</time>
      </trkpt>
      <trkpt lat="45.24453" lon="5.79812">
        <ele>530.2</ele>
        <time>2017-04-05T16:58:40Z</time>
      </trkpt>
      <trkpt lat="45.24451" lon="5.79804">
        <ele>530</ele>
        <time>2017-04-05T16:58:42Z</time>
      </trkpt>
      <trkpt lat="45.24448" lon="5.79797">
        <ele>529.7</ele>
        <time>2017-04-05T16:58:44Z</time>
      </trkpt>
      <trkpt lat="45.24445" lon="5.79789">
        <ele>529.5</ele>
        <time>2017-04-05T16:58:46Z</time>
      </trkpt>
      <trkpt lat="45.24443" lon="5.79781">
        <ele>529.2</ele>
        <time>2017-04-05T16:58:48Z</time>
      </trkpt>
      <trkpt lat="45.24441" lon="5.79774">
        <ele>528.9</ele>
        <time>2017-04-05T16:58:50Z</time>
      </trkpt>
      <trkpt lat="45.24435" lon="5.79769">
        <ele>528.7</ele>
        <time>2017-04-05T16:58:52Z</time>
      </trkpt>
      <trkpt lat="45.24428" lon="5.79765">
        <ele>528.7</ele>
        <time>2017-04-05T16:58:54Z</time>
      </trkpt>
      <trkpt lat="45.24421" lon="5.79761">
        <ele>528.8</ele>
        <time>2017-04-05T16:58:56Z</time>
      </trkpt>
      <trkpt lat="45.24414" lon="5.79758">
        <ele>528.9</ele>
        <time>2017-04-05T16:58:58Z</time>
      </trkpt>
      <trkpt lat="45.24406" lon="5.79754">
        <ele>528.9</ele>
        <time>2017-04-05T16:59:00Z</time>
      </trkpt>
      <trkpt lat="45.24398" lon="5.79753">
        <ele>528.9</ele>
        <time>2017-04-05T16:59:02Z</time>
      </trkpt>
      <trkpt lat="45.2439" lon="5.79753">
        <ele>528.8</ele>
        <time>2017-04-05T16:59:04Z</time>
      </trkpt>
      <trkpt lat="45.24381" lon="5.79752">
        <ele>528.9</ele>
        <time>2017-04-05T16:59:06Z</time>
      </trkpt>
      <trkpt lat="45.24374" lon="5.79748">
        <ele>529</ele>
        <time>2017-04-05T16:59:08Z</time>
      </trkpt>
      <trkpt lat="45.24366" lon="5.79744">
        <ele>529.1</ele>
        <time>2017-04-05T16:59:10Z</time>
      </trkpt>
      <trkpt lat="45.2436" lon="5.79739">
        <ele>529.2</ele>
        <time>2017-04-05T16:59:12Z</time>
      </trkpt>
      <trkpt lat="45.24353" lon="5.79734">
        <ele>529.3</ele>
        <time>2017-04-05T16:59:14Z</time>
      </trkpt>
      <trkpt lat="45.24348" lon="5.79731">
        <ele>529.5</ele>
        <time>2017-04-05T16:59:16Z</time>
      </trkpt>
      <trkpt lat="45.24342" lon="5.79727">
        <ele>529.8</ele>
        <time>2017-04-05T16:59:18Z</time>
      </trkpt>
      <trkpt lat="45.24336" lon="5.7972">
        <ele>530.1</ele>
        <time>2017-04-05T16:59:20Z</time>
      </trkpt>
      <trkpt lat="45.24331" lon="5.79712">
        <ele>530.4</ele>
        <time>2017-04-05T16:59:22Z</time>
      </trkpt>
      <trkpt lat="45.24325" lon="5.79706">
        <ele>530.6</ele>
        <time>2017-04-05T16:59:24Z</time>
      </trkpt>
      <trkpt lat="45.24321" lon="5.79702">
        <ele>530.8</ele>
        <time>2017-04-05T16:59:26Z</time>
      </trkpt>
      <trkpt lat="45.24317" lon="5.79696">
        <ele>531</ele>
        <time>2017-04-05T16:59:30Z</time>
      </trkpt>
      <trkpt lat="45.24311" lon="5.79688">
        <ele>531.3</ele>
        <time>2017-04-05T16:59:32Z</time>
      </trkpt>
      <trkpt lat="45.24305" lon="5.79679">
        <ele>531.6</ele>
        <time>2017-04-05T16:59:36Z</time>
      </trkpt>
      <trkpt lat="45.243" lon="5.7967">
        <ele>532.1</ele>
        <time>2017-04-05T16:59:40Z</time>
      </trkpt>
      <trkpt lat="45.24298" lon="5.79664">
        <ele>532.4</ele>
        <time>2017-04-05T16:59:42Z</time>
      </trkpt>
      <trkpt lat="45.24291" lon="5.79657">
        <ele>532.9</ele>
        <time>2017-04-05T16:59:46Z</time>
      </trkpt>
      <trkpt lat="45.24287" lon="5.79652">
        <ele>533.1</ele>
        <time>2017-04-05T16:59:48Z</time>
      </trkpt>
      <trkpt lat="45.24282" lon="5.79648">
        <ele>533.3</ele>
        <time>2017-04-05T16:59:50Z</time>
      </trkpt>
      <trkpt lat="45.24279" lon="5.79643">
        <ele>533.5</ele>
        <time>2017-04-05T16:59:52Z</time>
      </trkpt>
      <trkpt lat="45.24275" lon="5.79637">
        <ele>533.6</ele>
        <time>2017-04-05T16:59:54Z</time>
      </trkpt>
      <trkpt lat="45.24269" lon="5.79631">
        <ele>533.9</ele>
        <time>2017-04-05T16:59:58Z</time>
      </trkpt>
      <trkpt lat="45.24265" lon="5.79627">
        <ele>534</ele>
        <time>2017-04-05T17:00:00Z</time>
      </trkpt>
      <trkpt lat="45.24261" lon="5.79623">
        <ele>534.3</ele>
        <time>2017-04-05T17:00:02Z</time>
      </trkpt>
      <trkpt lat="45.24258" lon="5.79618">
        <ele>534.5</ele>
        <time>2017-04-05T17:00:04Z</time>
      </trkpt>
      <trkpt lat="45.24254" lon="5.79613">
        <ele>534.5</ele>
        <time>2017-04-05T17:00:06Z</time>
      </trkpt>
      <trkpt lat="45.2425" lon="5.79607">
        <ele>534.7</ele>
        <time>2017-04-05T17:00:08Z</time>
      </trkpt>
      <trkpt lat="45.24247" lon="5.79601">
        <ele>534.9</ele>
        <time>2017-04-05T17:00:10Z</time>
      </trkpt>
      <trkpt lat="45.24244" lon="5.79594">
        <ele>535.1</ele>
        <time>2017-04-05T17:00:12Z</time>
      </trkpt>
      <trkpt lat="45.24241" lon="5.79587">
        <ele>535.2</ele>
        <time>2017-04-05T17:00:14Z</time>
      </trkpt>
      <trkpt lat="45.24237" lon="5.79579">
        <ele>535.3</ele>
        <time>2017-04-05T17:00:16Z</time>
      </trkpt>
      <trkpt lat="45.24231" lon="5.79568">
        <ele>537.7</ele>
        <time>2017-04-05T17:00:18Z</time>
      </trkpt>
      <trkpt lat="45.24226" lon="5.79558">
        <ele>539.6</ele>
        <time>2017-04-05T17:00:20Z</time>
      </trkpt>
      <trkpt lat="45.24222" lon="5.7955">
        <ele>540.7</ele>
        <time>2017-04-05T17:00:22Z</time>
      </trkpt>
      <trkpt lat="45.24216" lon="5.79537">
        <ele>541.1</ele>
        <time>2017-04-05T17:00:26Z</time>
      </trkpt>
      <trkpt lat="45.24212" lon="5.79529">
        <ele>541.2</ele>
        <time>2017-04-05T17:00:28Z</time>
      </trkpt>
      <trkpt lat="45.24207" lon="5.79521">
        <ele>541.3</ele>
        <time>2017-04-05T17:00:30Z</time>
      </trkpt>
      <trkpt lat="45.24203" lon="5.79515">
        <ele>541.3</ele>
        <time>2017-04-05T17:00:32Z</time>
      </trkpt>
      <trkpt lat="45.24199" lon="5.7951">
        <ele>541.5</ele>
        <time>2017-04-05T17:00:34Z</time>
      </trkpt>
      <trkpt lat="45.24191" lon="5.79499">
        <ele>541.7</ele>
        <time>2017-04-05T17:00:38Z</time>
      </trkpt>
      <trkpt lat="45.24187" lon="5.79493">
        <ele>541.7</ele>
        <time>2017-04-05T17:00:40Z</time>
      </trkpt>
      <trkpt lat="45.24183" lon="5.79488">
        <ele>541.9</ele>
        <time>2017-04-05T17:00:42Z</time>
      </trkpt>
      <trkpt lat="45.2418" lon="5.79483">
        <ele>542.1</ele>
        <time>2017-04-05T17:00:44Z</time>
      </trkpt>
      <trkpt lat="45.24174" lon="5.79475">
        <ele>542.5</ele>
        <time>2017-04-05T17:00:48Z</time>
      </trkpt>
      <trkpt lat="45.2417" lon="5.79469">
        <ele>542.6</ele>
        <time>2017-04-05T17:00:50Z</time>
      </trkpt>
      <trkpt lat="45.24165" lon="5.79464">
        <ele>542.7</ele>
        <time>2017-04-05T17:00:52Z</time>
      </trkpt>
      <trkpt lat="45.2416" lon="5.79458">
        <ele>542.7</ele>
        <time>2017-04-05T17:00:54Z</time>
      </trkpt>
      <trkpt lat="45.24155" lon="5.7945">
        <ele>542.6</ele>
        <time>2017-04-05T17:00:56Z</time>
      </trkpt>
      <trkpt lat="45.24149" lon="5.7944">
        <ele>542.6</ele>
        <time>2017-04-05T17:00:58Z</time>
      </trkpt>
      <trkpt lat="45.24138" lon="5.79423">
        <ele>542.6</ele>
        <time>2017-04-05T17:01:02Z</time>
      </trkpt>
      <trkpt lat="45.24134" lon="5.79418">
        <ele>542.5</ele>
        <time>2017-04-05T17:01:04Z</time>
      </trkpt>
      <trkpt lat="45.2413" lon="5.79413">
        <ele>542.6</ele>
        <time>2017-04-05T17:01:06Z</time>
      </trkpt>
      <trkpt lat="45.24127" lon="5.79406">
        <ele>542.8</ele>
        <time>2017-04-05T17:01:08Z</time>
      </trkpt>
      <trkpt lat="45.24124" lon="5.79398">
        <ele>542.9</ele>
        <time>2017-04-05T17:01:10Z</time>
      </trkpt>
      <trkpt lat="45.24119" lon="5.7939">
        <ele>543</ele>
        <time>2017-04-05T17:01:12Z</time>
      </trkpt>
      <trkpt lat="45.24112" lon="5.79382">
        <ele>543.2</ele>
        <time>2017-04-05T17:01:16Z</time>
      </trkpt>
      <trkpt lat="45.24106" lon="5.79377">
        <ele>543.4</ele>
        <time>2017-04-05T17:01:18Z</time>
      </trkpt>
      <trkpt lat="45.241" lon="5.79371">
        <ele>543.5</ele>
        <time>2017-04-05T17:01:19Z</time>
      </trkpt>
      <trkpt lat="45.24093" lon="5.79364">
        <ele>543.5</ele>
        <time>2017-04-05T17:01:22Z</time>
      </trkpt>
      <trkpt lat="45.24089" lon="5.79357">
        <ele>543.3</ele>
        <time>2017-04-05T17:01:23Z</time>
      </trkpt>
      <trkpt lat="45.24088" lon="5.79349">
        <ele>543.1</ele>
        <time>2017-04-05T17:01:25Z</time>
      </trkpt>
      <trkpt lat="45.24088" lon="5.79338">
        <ele>542.9</ele>
        <time>2017-04-05T17:01:27Z</time>
      </trkpt>
      <trkpt lat="45.2409" lon="5.79328">
        <ele>542.8</ele>
        <time>2017-04-05T17:01:29Z</time>
      </trkpt>
      <trkpt lat="45.24092" lon="5.79319">
        <ele>542.8</ele>
        <time>2017-04-05T17:01:31Z</time>
      </trkpt>
      <trkpt lat="45.24092" lon="5.79308">
        <ele>542.9</ele>
        <time>2017-04-05T17:01:33Z</time>
      </trkpt>
      <trkpt lat="45.24093" lon="5.79298">
        <ele>543</ele>
        <time>2017-04-05T17:01:35Z</time>
      </trkpt>
      <trkpt lat="45.24091" lon="5.79292">
        <ele>543.1</ele>
        <time>2017-04-05T17:01:37Z</time>
      </trkpt>
      <trkpt lat="45.24084" lon="5.79278">
        <ele>543.3</ele>
        <time>2017-04-05T17:01:41Z</time>
      </trkpt>
      <trkpt lat="45.24078" lon="5.79269">
        <ele>543.4</ele>
        <time>2017-04-05T17:01:43Z</time>
      </trkpt>
      <trkpt lat="45.24073" lon="5.79263">
        <ele>543.5</ele>
        <time>2017-04-05T17:01:45Z</time>
      </trkpt>
      <trkpt lat="45.24067" lon="5.79256">
        <ele>543.5</ele>
        <time>2017-04-05T17:01:47Z</time>
      </trkpt>
      <trkpt lat="45.2406" lon="5.79251">
        <ele>543.6</ele>
        <time>2017-04-05T17:01:49Z</time>
      </trkpt>
      <trkpt lat="45.24054" lon="5.79248">
        <ele>543.6</ele>
        <time>2017-04-05T17:01:51Z</time>
      </trkpt>
      <trkpt lat="45.24047" lon="5.79246">
        <ele>543.5</ele>
        <time>2017-04-05T17:01:53Z</time>
      </trkpt>
      <trkpt lat="45.24041" lon="5.79243">
        <ele>543.6</ele>
        <time>2017-04-05T17:01:55Z</time>
      </trkpt>
      <trkpt lat="45.24035" lon="5.79241">
        <ele>543.7</ele>
        <time>2017-04-05T17:01:57Z</time>
      </trkpt>
      <trkpt lat="45.2403" lon="5.79237">
        <ele>543.7</ele>
        <time>2017-04-05T17:01:59Z</time>
      </trkpt>
      <trkpt lat="45.24025" lon="5.79232">
        <ele>543.5</ele>
        <time>2017-04-05T17:02:01Z</time>
      </trkpt>
      <trkpt lat="45.24018" lon="5.79223">
        <ele>543.3</ele>
        <time>2017-04-05T17:02:03Z</time>
      </trkpt>
      <trkpt lat="45.24015" lon="5.79217">
        <ele>543.2</ele>
        <time>2017-04-05T17:02:05Z</time>
      </trkpt>
      <trkpt lat="45.24012" lon="5.7921">
        <ele>543.2</ele>
        <time>2017-04-05T17:02:07Z</time>
      </trkpt>
      <trkpt lat="45.2401" lon="5.79201">
        <ele>543.2</ele>
        <time>2017-04-05T17:02:09Z</time>
      </trkpt>
      <trkpt lat="45.24008" lon="5.79195">
        <ele>543</ele>
        <time>2017-04-05T17:02:11Z</time>
      </trkpt>
      <trkpt lat="45.24005" lon="5.79187">
        <ele>543</ele>
        <time>2017-04-05T17:02:15Z</time>
      </trkpt>
      <trkpt lat="45.24003" lon="5.79171">
        <ele>544.4</ele>
        <time>2017-04-05T17:02:43Z</time>
      </trkpt>
      <trkpt lat="45.24005" lon="5.79163">
        <ele>544.6</ele>
        <time>2017-04-05T17:02:47Z</time>
      </trkpt>
      <trkpt lat="45.2401" lon="5.79149">
        <ele>544.7</ele>
        <time>2017-04-05T17:02:51Z</time>
      </trkpt>
      <trkpt lat="45.24011" lon="5.79143">
        <ele>544.7</ele>
        <time>2017-04-05T17:02:53Z</time>
      </trkpt>
      <trkpt lat="45.24013" lon="5.79133">
        <ele>544.5</ele>
        <time>2017-04-05T17:02:55Z</time>
      </trkpt>
      <trkpt lat="45.24016" lon="5.79122">
        <ele>544.3</ele>
        <time>2017-04-05T17:02:57Z</time>
      </trkpt>
      <trkpt lat="45.24019" lon="5.79112">
        <ele>544.2</ele>
        <time>2017-04-05T17:02:59Z</time>
      </trkpt>
      <trkpt lat="45.24021" lon="5.79104">
        <ele>544.2</ele>
        <time>2017-04-05T17:03:01Z</time>
      </trkpt>
      <trkpt lat="45.24022" lon="5.79095">
        <ele>544.2</ele>
        <time>2017-04-05T17:03:03Z</time>
      </trkpt>
      <trkpt lat="45.24022" lon="5.79085">
        <ele>544.3</ele>
        <time>2017-04-05T17:03:05Z</time>
      </trkpt>
      <trkpt lat="45.24022" lon="5.79077">
        <ele>544.4</ele>
        <time>2017-04-05T17:03:07Z</time>
      </trkpt>
      <trkpt lat="45.24018" lon="5.79068">
        <ele>544.6</ele>
        <time>2017-04-05T17:03:11Z</time>
      </trkpt>
      <trkpt lat="45.24013" lon="5.79057">
        <ele>544.7</ele>
        <time>2017-04-05T17:03:15Z</time>
      </trkpt>
      <trkpt lat="45.24009" lon="5.79048">
        <ele>544.7</ele>
        <time>2017-04-05T17:03:17Z</time>
      </trkpt>
      <trkpt lat="45.24005" lon="5.79042">
        <ele>544.5</ele>
        <time>2017-04-05T17:03:19Z</time>
      </trkpt>
      <trkpt lat="45.24002" lon="5.79032">
        <ele>544.2</ele>
        <time>2017-04-05T17:03:21Z</time>
      </trkpt>
      <trkpt lat="45.23999" lon="5.79025">
        <ele>544.1</ele>
        <time>2017-04-05T17:03:23Z</time>
      </trkpt>
      <trkpt lat="45.23994" lon="5.79015">
        <ele>543.5</ele>
        <time>2017-04-05T17:03:27Z</time>
      </trkpt>
      <trkpt lat="45.23992" lon="5.79008">
        <ele>543.1</ele>
        <time>2017-04-05T17:03:29Z</time>
      </trkpt>
      <trkpt lat="45.23989" lon="5.78999">
        <ele>542.9</ele>
        <time>2017-04-05T17:03:31Z</time>
      </trkpt>
      <trkpt lat="45.23987" lon="5.78991">
        <ele>542.6</ele>
        <time>2017-04-05T17:03:33Z</time>
      </trkpt>
      <trkpt lat="45.23981" lon="5.78981">
        <ele>542.3</ele>
        <time>2017-04-05T17:03:35Z</time>
      </trkpt>
      <trkpt lat="45.2398" lon="5.78974">
        <ele>542.2</ele>
        <time>2017-04-05T17:03:37Z</time>
      </trkpt>
      <trkpt lat="45.23977" lon="5.78962">
        <ele>542.2</ele>
        <time>2017-04-05T17:03:41Z</time>
      </trkpt>
      <trkpt lat="45.23977" lon="5.78953">
        <ele>542.4</ele>
        <time>2017-04-05T17:03:43Z</time>
      </trkpt>
      <trkpt lat="45.23975" lon="5.78943">
        <ele>543.8</ele>
        <time>2017-04-05T17:03:45Z</time>
      </trkpt>
      <trkpt lat="45.23973" lon="5.78937">
        <ele>544.5</ele>
        <time>2017-04-05T17:03:47Z</time>
      </trkpt>
      <trkpt lat="45.23969" lon="5.7893">
        <ele>545</ele>
        <time>2017-04-05T17:03:49Z</time>
      </trkpt>
      <trkpt lat="45.23966" lon="5.78921">
        <ele>545.5</ele>
        <time>2017-04-05T17:03:51Z</time>
      </trkpt>
      <trkpt lat="45.23963" lon="5.78911">
        <ele>546.9</ele>
        <time>2017-04-05T17:03:53Z</time>
      </trkpt>
      <trkpt lat="45.2396" lon="5.78904">
        <ele>547.6</ele>
        <time>2017-04-05T17:03:55Z</time>
      </trkpt>
      <trkpt lat="45.23956" lon="5.78896">
        <ele>547.8</ele>
        <time>2017-04-05T17:03:57Z</time>
      </trkpt>
      <trkpt lat="45.23951" lon="5.78888">
        <ele>548.1</ele>
        <time>2017-04-05T17:03:59Z</time>
      </trkpt>
      <trkpt lat="45.23944" lon="5.78877">
        <ele>548.3</ele>
        <time>2017-04-05T17:04:01Z</time>
      </trkpt>
      <trkpt lat="45.23942" lon="5.7887">
        <ele>548.4</ele>
        <time>2017-04-05T17:04:03Z</time>
      </trkpt>
      <trkpt lat="45.23938" lon="5.78863">
        <ele>548.6</ele>
        <time>2017-04-05T17:04:05Z</time>
      </trkpt>
      <trkpt lat="45.23934" lon="5.78858">
        <ele>548.7</ele>
        <time>2017-04-05T17:04:07Z</time>
      </trkpt>
      <trkpt lat="45.23931" lon="5.78851">
        <ele>548.7</ele>
        <time>2017-04-05T17:04:09Z</time>
      </trkpt>
      <trkpt lat="45.23928" lon="5.78841">
        <ele>548.7</ele>
        <time>2017-04-05T17:04:11Z</time>
      </trkpt>
      <trkpt lat="45.23926" lon="5.78833">
        <ele>548.8</ele>
        <time>2017-04-05T17:04:13Z</time>
      </trkpt>
      <trkpt lat="45.23925" lon="5.78827">
        <ele>548.9</ele>
        <time>2017-04-05T17:04:15Z</time>
      </trkpt>
      <trkpt lat="45.23919" lon="5.78817">
        <ele>549.2</ele>
        <time>2017-04-05T17:04:19Z</time>
      </trkpt>
      <trkpt lat="45.23915" lon="5.7881">
        <ele>549.5</ele>
        <time>2017-04-05T17:04:21Z</time>
      </trkpt>
      <trkpt lat="45.23911" lon="5.78803">
        <ele>549.7</ele>
        <time>2017-04-05T17:04:23Z</time>
      </trkpt>
      <trkpt lat="45.23906" lon="5.78795">
        <ele>550</ele>
        <time>2017-04-05T17:04:25Z</time>
      </trkpt>
      <trkpt lat="45.23904" lon="5.78789">
        <ele>550.3</ele>
        <time>2017-04-05T17:04:27Z</time>
      </trkpt>
      <trkpt lat="45.23902" lon="5.78782">
        <ele>550.6</ele>
        <time>2017-04-05T17:04:29Z</time>
      </trkpt>
      <trkpt lat="45.23901" lon="5.78774">
        <ele>550.8</ele>
        <time>2017-04-05T17:04:31Z</time>
      </trkpt>
      <trkpt lat="45.23898" lon="5.78765">
        <ele>550.9</ele>
        <time>2017-04-05T17:04:33Z</time>
      </trkpt>
      <trkpt lat="45.23896" lon="5.78758">
        <ele>551.1</ele>
        <time>2017-04-05T17:04:35Z</time>
      </trkpt>
      <trkpt lat="45.23894" lon="5.78751">
        <ele>551.3</ele>
        <time>2017-04-05T17:04:37Z</time>
      </trkpt>
      <trkpt lat="45.2389" lon="5.7874">
        <ele>551.6</ele>
        <time>2017-04-05T17:04:41Z</time>
      </trkpt>
      <trkpt lat="45.23885" lon="5.78731">
        <ele>551.7</ele>
        <time>2017-04-05T17:04:43Z</time>
      </trkpt>
      <trkpt lat="45.23881" lon="5.78723">
        <ele>551.8</ele>
        <time>2017-04-05T17:04:45Z</time>
      </trkpt>
      <trkpt lat="45.23877" lon="5.78715">
        <ele>551.8</ele>
        <time>2017-04-05T17:04:47Z</time>
      </trkpt>
      <trkpt lat="45.23872" lon="5.78706">
        <ele>551.8</ele>
        <time>2017-04-05T17:04:51Z</time>
      </trkpt>
      <trkpt lat="45.23868" lon="5.78698">
        <ele>551.8</ele>
        <time>2017-04-05T17:04:53Z</time>
      </trkpt>
      <trkpt lat="45.2386" lon="5.78684">
        <ele>551.6</ele>
        <time>2017-04-05T17:04:57Z</time>
      </trkpt>
      <trkpt lat="45.23855" lon="5.78674">
        <ele>551.5</ele>
        <time>2017-04-05T17:05:01Z</time>
      </trkpt>
      <trkpt lat="45.2385" lon="5.78672">
        <ele>551.4</ele>
        <time>2017-04-05T17:05:03Z</time>
      </trkpt>
      <trkpt lat="45.23844" lon="5.78668">
        <ele>551.3</ele>
        <time>2017-04-05T17:05:05Z</time>
      </trkpt>
      <trkpt lat="45.23834" lon="5.78665">
        <ele>551</ele>
        <time>2017-04-05T17:05:09Z</time>
      </trkpt>
      <trkpt lat="45.2383" lon="5.78666">
        <ele>551</ele>
        <time>2017-04-05T17:05:11Z</time>
      </trkpt>
      <trkpt lat="45.23826" lon="5.78671">
        <ele>551.1</ele>
        <time>2017-04-05T17:05:13Z</time>
      </trkpt>
      <trkpt lat="45.23822" lon="5.78676">
        <ele>551.3</ele>
        <time>2017-04-05T17:05:15Z</time>
      </trkpt>
      <trkpt lat="45.23819" lon="5.78681">
        <ele>551.7</ele>
        <time>2017-04-05T17:05:17Z</time>
      </trkpt>
      <trkpt lat="45.23814" lon="5.78686">
        <ele>552.3</ele>
        <time>2017-04-05T17:05:19Z</time>
      </trkpt>
      <trkpt lat="45.23803" lon="5.78691">
        <ele>552.9</ele>
        <time>2017-04-05T17:05:21Z</time>
      </trkpt>
      <trkpt lat="45.23794" lon="5.78692">
        <ele>553.4</ele>
        <time>2017-04-05T17:05:23Z</time>
      </trkpt>
      <trkpt lat="45.23783" lon="5.78682">
        <ele>553.9</ele>
        <time>2017-04-05T17:05:25Z</time>
      </trkpt>
      <trkpt lat="45.23779" lon="5.78678">
        <ele>554.2</ele>
        <time>2017-04-05T17:05:27Z</time>
      </trkpt>
      <trkpt lat="45.23773" lon="5.78674">
        <ele>554.5</ele>
        <time>2017-04-05T17:05:29Z</time>
      </trkpt>
      <trkpt lat="45.2377" lon="5.78667">
        <ele>554.8</ele>
        <time>2017-04-05T17:05:31Z</time>
      </trkpt>
      <trkpt lat="45.23767" lon="5.7866">
        <ele>555.1</ele>
        <time>2017-04-05T17:05:33Z</time>
      </trkpt>
      <trkpt lat="45.23764" lon="5.78652">
        <ele>555.5</ele>
        <time>2017-04-05T17:05:35Z</time>
      </trkpt>
      <trkpt lat="45.23759" lon="5.78639">
        <ele>555.8</ele>
        <time>2017-04-05T17:05:37Z</time>
      </trkpt>
      <trkpt lat="45.23757" lon="5.78632">
        <ele>556</ele>
        <time>2017-04-05T17:05:39Z</time>
      </trkpt>
      <trkpt lat="45.23754" lon="5.78625">
        <ele>556.3</ele>
        <time>2017-04-05T17:05:41Z</time>
      </trkpt>
      <trkpt lat="45.23751" lon="5.78619">
        <ele>556.6</ele>
        <time>2017-04-05T17:05:43Z</time>
      </trkpt>
      <trkpt lat="45.23749" lon="5.78612">
        <ele>556.9</ele>
        <time>2017-04-05T17:05:45Z</time>
      </trkpt>
      <trkpt lat="45.23747" lon="5.78603">
        <ele>557.1</ele>
        <time>2017-04-05T17:05:47Z</time>
      </trkpt>
      <trkpt lat="45.23748" lon="5.78596">
        <ele>557.3</ele>
        <time>2017-04-05T17:05:49Z</time>
      </trkpt>
      <trkpt lat="45.23749" lon="5.78589">
        <ele>557.5</ele>
        <time>2017-04-05T17:05:51Z</time>
      </trkpt>
      <trkpt lat="45.2375" lon="5.78581">
        <ele>557.7</ele>
        <time>2017-04-05T17:05:53Z</time>
      </trkpt>
      <trkpt lat="45.23752" lon="5.7857">
        <ele>557.8</ele>
        <time>2017-04-05T17:05:55Z</time>
      </trkpt>
      <trkpt lat="45.23753" lon="5.78562">
        <ele>557.8</ele>
        <time>2017-04-05T17:05:57Z</time>
      </trkpt>
      <trkpt lat="45.23755" lon="5.7855">
        <ele>557.8</ele>
        <time>2017-04-05T17:05:59Z</time>
      </trkpt>
      <trkpt lat="45.23759" lon="5.78537">
        <ele>557.7</ele>
        <time>2017-04-05T17:06:01Z</time>
      </trkpt>
      <trkpt lat="45.23761" lon="5.78531">
        <ele>557.7</ele>
        <time>2017-04-05T17:06:03Z</time>
      </trkpt>
      <trkpt lat="45.23764" lon="5.78524">
        <ele>557.5</ele>
        <time>2017-04-05T17:06:05Z</time>
      </trkpt>
      <trkpt lat="45.23765" lon="5.78516">
        <ele>557.4</ele>
        <time>2017-04-05T17:06:07Z</time>
      </trkpt>
      <trkpt lat="45.23764" lon="5.78507">
        <ele>557.3</ele>
        <time>2017-04-05T17:06:09Z</time>
      </trkpt>
      <trkpt lat="45.23763" lon="5.78498">
        <ele>557.1</ele>
        <time>2017-04-05T17:06:11Z</time>
      </trkpt>
      <trkpt lat="45.23761" lon="5.78489">
        <ele>557</ele>
        <time>2017-04-05T17:06:13Z</time>
      </trkpt>
      <trkpt lat="45.23758" lon="5.78482">
        <ele>556.9</ele>
        <time>2017-04-05T17:06:15Z</time>
      </trkpt>
      <trkpt lat="45.23754" lon="5.78477">
        <ele>557</ele>
        <time>2017-04-05T17:06:17Z</time>
      </trkpt>
      <trkpt lat="45.23746" lon="5.78466">
        <ele>557.1</ele>
        <time>2017-04-05T17:06:19Z</time>
      </trkpt>
      <trkpt lat="45.2374" lon="5.7846">
        <ele>557.3</ele>
        <time>2017-04-05T17:06:21Z</time>
      </trkpt>
      <trkpt lat="45.23736" lon="5.78452">
        <ele>557.6</ele>
        <time>2017-04-05T17:06:23Z</time>
      </trkpt>
      <trkpt lat="45.2373" lon="5.78444">
        <ele>557.9</ele>
        <time>2017-04-05T17:06:25Z</time>
      </trkpt>
      <trkpt lat="45.23727" lon="5.78439">
        <ele>558.2</ele>
        <time>2017-04-05T17:06:27Z</time>
      </trkpt>
      <trkpt lat="45.23723" lon="5.78432">
        <ele>558.4</ele>
        <time>2017-04-05T17:06:29Z</time>
      </trkpt>
      <trkpt lat="45.23717" lon="5.78425">
        <ele>558.7</ele>
        <time>2017-04-05T17:06:31Z</time>
      </trkpt>
      <trkpt lat="45.23712" lon="5.78419">
        <ele>559.1</ele>
        <time>2017-04-05T17:06:33Z</time>
      </trkpt>
      <trkpt lat="45.23708" lon="5.78414">
        <ele>559.4</ele>
        <time>2017-04-05T17:06:35Z</time>
      </trkpt>
      <trkpt lat="45.23703" lon="5.78403">
        <ele>559.8</ele>
        <time>2017-04-05T17:06:37Z</time>
      </trkpt>
      <trkpt lat="45.23701" lon="5.78397">
        <ele>560.3</ele>
        <time>2017-04-05T17:06:39Z</time>
      </trkpt>
      <trkpt lat="45.23698" lon="5.78387">
        <ele>560.5</ele>
        <time>2017-04-05T17:06:41Z</time>
      </trkpt>
      <trkpt lat="45.23692" lon="5.78373">
        <ele>561</ele>
        <time>2017-04-05T17:06:45Z</time>
      </trkpt>
      <trkpt lat="45.23689" lon="5.78368">
        <ele>561.2</ele>
        <time>2017-04-05T17:06:47Z</time>
      </trkpt>
      <trkpt lat="45.23685" lon="5.78359">
        <ele>561.3</ele>
        <time>2017-04-05T17:06:51Z</time>
      </trkpt>
      <trkpt lat="45.2368" lon="5.78354">
        <ele>561.4</ele>
        <time>2017-04-05T17:06:53Z</time>
      </trkpt>
      <trkpt lat="45.23674" lon="5.78344">
        <ele>561.5</ele>
        <time>2017-04-05T17:06:55Z</time>
      </trkpt>
      <trkpt lat="45.23667" lon="5.78332">
        <ele>561.6</ele>
        <time>2017-04-05T17:06:59Z</time>
      </trkpt>
      <trkpt lat="45.23664" lon="5.78326">
        <ele>561.8</ele>
        <time>2017-04-05T17:07:01Z</time>
      </trkpt>
      <trkpt lat="45.2366" lon="5.78324">
        <ele>562.3</ele>
        <time>2017-04-05T17:07:19Z</time>
      </trkpt>
      <trkpt lat="45.23657" lon="5.78318">
        <ele>562.1</ele>
        <time>2017-04-05T17:07:21Z</time>
      </trkpt>
      <trkpt lat="45.23653" lon="5.78312">
        <ele>561.8</ele>
        <time>2017-04-05T17:07:25Z</time>
      </trkpt>
      <trkpt lat="45.23652" lon="5.78305">
        <ele>561.5</ele>
        <time>2017-04-05T17:07:27Z</time>
      </trkpt>
      <trkpt lat="45.2365" lon="5.78292">
        <ele>561.1</ele>
        <time>2017-04-05T17:07:31Z</time>
      </trkpt>
      <trkpt lat="45.23647" lon="5.78286">
        <ele>560.7</ele>
        <time>2017-04-05T17:07:33Z</time>
      </trkpt>
      <trkpt lat="45.23642" lon="5.78287">
        <ele>559.3</ele>
        <time>2017-04-05T17:07:39Z</time>
      </trkpt>
      <trkpt lat="45.23636" lon="5.78285">
        <ele>558.7</ele>
        <time>2017-04-05T17:07:43Z</time>
      </trkpt>
      <trkpt lat="45.2363" lon="5.78288">
        <ele>558.3</ele>
        <time>2017-04-05T17:07:45Z</time>
      </trkpt>
      <trkpt lat="45.23624" lon="5.78283">
        <ele>556.9</ele>
        <time>2017-04-05T17:07:49Z</time>
      </trkpt>
      <trkpt lat="45.23619" lon="5.7828">
        <ele>555.1</ele>
        <time>2017-04-05T17:07:53Z</time>
      </trkpt>
      <trkpt lat="45.23614" lon="5.78275">
        <ele>554.2</ele>
        <time>2017-04-05T17:07:55Z</time>
      </trkpt>
      <trkpt lat="45.23609" lon="5.78267">
        <ele>551.9</ele>
        <time>2017-04-05T17:08:01Z</time>
      </trkpt>
      <trkpt lat="45.23601" lon="5.78261">
        <ele>551.1</ele>
        <time>2017-04-05T17:08:05Z</time>
      </trkpt>
      <trkpt lat="45.23595" lon="5.78254">
        <ele>550.2</ele>
        <time>2017-04-05T17:08:09Z</time>
      </trkpt>
      <trkpt lat="45.2359" lon="5.78246">
        <ele>549.7</ele>
        <time>2017-04-05T17:08:11Z</time>
      </trkpt>
      <trkpt lat="45.23584" lon="5.78236">
        <ele>549.1</ele>
        <time>2017-04-05T17:08:13Z</time>
      </trkpt>
      <trkpt lat="45.23579" lon="5.78224">
        <ele>548.6</ele>
        <time>2017-04-05T17:08:15Z</time>
      </trkpt>
      <trkpt lat="45.23576" lon="5.78218">
        <ele>548.1</ele>
        <time>2017-04-05T17:08:17Z</time>
      </trkpt>
      <trkpt lat="45.2357" lon="5.78214">
        <ele>547.4</ele>
        <time>2017-04-05T17:08:21Z</time>
      </trkpt>
      <trkpt lat="45.23563" lon="5.78209">
        <ele>547</ele>
        <time>2017-04-05T17:08:23Z</time>
      </trkpt>
      <trkpt lat="45.23558" lon="5.78202">
        <ele>546.6</ele>
        <time>2017-04-05T17:08:25Z</time>
      </trkpt>
      <trkpt lat="45.23553" lon="5.78191">
        <ele>546.2</ele>
        <time>2017-04-05T17:08:27Z</time>
      </trkpt>
      <trkpt lat="45.23548" lon="5.78183">
        <ele>546</ele>
        <time>2017-04-05T17:08:29Z</time>
      </trkpt>
      <trkpt lat="45.23542" lon="5.7817">
        <ele>545.4</ele>
        <time>2017-04-05T17:08:33Z</time>
      </trkpt>
      <trkpt lat="45.23537" lon="5.78158">
        <ele>545</ele>
        <time>2017-04-05T17:08:35Z</time>
      </trkpt>
      <trkpt lat="45.23532" lon="5.78149">
        <ele>544.7</ele>
        <time>2017-04-05T17:08:37Z</time>
      </trkpt>
      <trkpt lat="45.23527" lon="5.78143">
        <ele>543.6</ele>
        <time>2017-04-05T17:08:41Z</time>
      </trkpt>
      <trkpt lat="45.23518" lon="5.78138">
        <ele>543.1</ele>
        <time>2017-04-05T17:08:43Z</time>
      </trkpt>
      <trkpt lat="45.23513" lon="5.78126">
        <ele>542.7</ele>
        <time>2017-04-05T17:08:45Z</time>
      </trkpt>
      <trkpt lat="45.23508" lon="5.78115">
        <ele>542.2</ele>
        <time>2017-04-05T17:08:47Z</time>
      </trkpt>
      <trkpt lat="45.235" lon="5.78107">
        <ele>541.3</ele>
        <time>2017-04-05T17:08:51Z</time>
      </trkpt>
      <trkpt lat="45.23489" lon="5.781">
        <ele>540.9</ele>
        <time>2017-04-05T17:08:53Z</time>
      </trkpt>
      <trkpt lat="45.23477" lon="5.78093">
        <ele>540.4</ele>
        <time>2017-04-05T17:08:55Z</time>
      </trkpt>
      <trkpt lat="45.23465" lon="5.78087">
        <ele>539.9</ele>
        <time>2017-04-05T17:08:57Z</time>
      </trkpt>
      <trkpt lat="45.23459" lon="5.78086">
        <ele>539.3</ele>
        <time>2017-04-05T17:08:59Z</time>
      </trkpt>
      <trkpt lat="45.2345" lon="5.7809">
        <ele>538.7</ele>
        <time>2017-04-05T17:09:01Z</time>
      </trkpt>
      <trkpt lat="45.23442" lon="5.78094">
        <ele>538</ele>
        <time>2017-04-05T17:09:03Z</time>
      </trkpt>
      <trkpt lat="45.2344" lon="5.78085">
        <ele>534.2</ele>
        <time>2017-04-05T17:09:15Z</time>
      </trkpt>
      <trkpt lat="45.23432" lon="5.78081">
        <ele>533.3</ele>
        <time>2017-04-05T17:09:17Z</time>
      </trkpt>
      <trkpt lat="45.23424" lon="5.78071">
        <ele>532.5</ele>
        <time>2017-04-05T17:09:19Z</time>
      </trkpt>
      <trkpt lat="45.23418" lon="5.7806">
        <ele>531.7</ele>
        <time>2017-04-05T17:09:21Z</time>
      </trkpt>
      <trkpt lat="45.23411" lon="5.7805">
        <ele>531</ele>
        <time>2017-04-05T17:09:23Z</time>
      </trkpt>
      <trkpt lat="45.23403" lon="5.78041">
        <ele>530.5</ele>
        <time>2017-04-05T17:09:25Z</time>
      </trkpt>
      <trkpt lat="45.23396" lon="5.78034">
        <ele>529.9</ele>
        <time>2017-04-05T17:09:27Z</time>
      </trkpt>
      <trkpt lat="45.23393" lon="5.78024">
        <ele>529.2</ele>
        <time>2017-04-05T17:09:29Z</time>
      </trkpt>
      <trkpt lat="45.23389" lon="5.78014">
        <ele>528.6</ele>
        <time>2017-04-05T17:09:31Z</time>
      </trkpt>
      <trkpt lat="45.23388" lon="5.78007">
        <ele>528.1</ele>
        <time>2017-04-05T17:09:33Z</time>
      </trkpt>
      <trkpt lat="45.23382" lon="5.77999">
        <ele>527.6</ele>
        <time>2017-04-05T17:09:35Z</time>
      </trkpt>
      <trkpt lat="45.23378" lon="5.77991">
        <ele>526.6</ele>
        <time>2017-04-05T17:09:39Z</time>
      </trkpt>
      <trkpt lat="45.23373" lon="5.77991">
        <ele>525.9</ele>
        <time>2017-04-05T17:09:41Z</time>
      </trkpt>
      <trkpt lat="45.23366" lon="5.7799">
        <ele>525.2</ele>
        <time>2017-04-05T17:09:43Z</time>
      </trkpt>
      <trkpt lat="45.23357" lon="5.77982">
        <ele>524.1</ele>
        <time>2017-04-05T17:09:47Z</time>
      </trkpt>
      <trkpt lat="45.23349" lon="5.77972">
        <ele>523.4</ele>
        <time>2017-04-05T17:09:49Z</time>
      </trkpt>
      <trkpt lat="45.23342" lon="5.7796">
        <ele>522.5</ele>
        <time>2017-04-05T17:09:51Z</time>
      </trkpt>
      <trkpt lat="45.23334" lon="5.77948">
        <ele>521.5</ele>
        <time>2017-04-05T17:09:53Z</time>
      </trkpt>
      <trkpt lat="45.23327" lon="5.77934">
        <ele>520.6</ele>
        <time>2017-04-05T17:09:55Z</time>
      </trkpt>
      <trkpt lat="45.23326" lon="5.77916">
        <ele>519.6</ele>
        <time>2017-04-05T17:09:57Z</time>
      </trkpt>
      <trkpt lat="45.23321" lon="5.77903">
        <ele>518.5</ele>
        <time>2017-04-05T17:09:59Z</time>
      </trkpt>
      <trkpt lat="45.23315" lon="5.7789">
        <ele>517.3</ele>
        <time>2017-04-05T17:10:01Z</time>
      </trkpt>
      <trkpt lat="45.23309" lon="5.77879">
        <ele>516.3</ele>
        <time>2017-04-05T17:10:03Z</time>
      </trkpt>
      <trkpt lat="45.23302" lon="5.77869">
        <ele>515.4</ele>
        <time>2017-04-05T17:10:05Z</time>
      </trkpt>
      <trkpt lat="45.23295" lon="5.77863">
        <ele>514.6</ele>
        <time>2017-04-05T17:10:07Z</time>
      </trkpt>
      <trkpt lat="45.23291" lon="5.77859">
        <ele>513.6</ele>
        <time>2017-04-05T17:10:09Z</time>
      </trkpt>
      <trkpt lat="45.23281" lon="5.7785">
        <ele>512.7</ele>
        <time>2017-04-05T17:10:11Z</time>
      </trkpt>
      <trkpt lat="45.23269" lon="5.77843">
        <ele>511.5</ele>
        <time>2017-04-05T17:10:13Z</time>
      </trkpt>
      <trkpt lat="45.23256" lon="5.77842">
        <ele>510.1</ele>
        <time>2017-04-05T17:10:15Z</time>
      </trkpt>
      <trkpt lat="45.23245" lon="5.77837">
        <ele>508.8</ele>
        <time>2017-04-05T17:10:17Z</time>
      </trkpt>
      <trkpt lat="45.23238" lon="5.77839">
        <ele>507.9</ele>
        <time>2017-04-05T17:10:19Z</time>
      </trkpt>
      <trkpt lat="45.23231" lon="5.77841">
        <ele>506.1</ele>
        <time>2017-04-05T17:10:23Z</time>
      </trkpt>
      <trkpt lat="45.23226" lon="5.7784">
        <ele>505.3</ele>
        <time>2017-04-05T17:10:25Z</time>
      </trkpt>
      <trkpt lat="45.23221" lon="5.77838">
        <ele>504.6</ele>
        <time>2017-04-05T17:10:27Z</time>
      </trkpt>
      <trkpt lat="45.23217" lon="5.77838">
        <ele>504.6</ele>
        <time>2017-04-05T17:11:45Z</time>
      </trkpt>
      <trkpt lat="45.23209" lon="5.7784">
        <ele>511.2</ele>
        <time>2017-04-05T17:12:27Z</time>
      </trkpt>
      <trkpt lat="45.23201" lon="5.77845">
        <ele>511.7</ele>
        <time>2017-04-05T17:12:29Z</time>
      </trkpt>
      <trkpt lat="45.2319" lon="5.77851">
        <ele>512.2</ele>
        <time>2017-04-05T17:12:31Z</time>
      </trkpt>
      <trkpt lat="45.23182" lon="5.77859">
        <ele>512.8</ele>
        <time>2017-04-05T17:12:33Z</time>
      </trkpt>
      <trkpt lat="45.23178" lon="5.77865">
        <ele>513.2</ele>
        <time>2017-04-05T17:12:35Z</time>
      </trkpt>
      <trkpt lat="45.23174" lon="5.77873">
        <ele>514.5</ele>
        <time>2017-04-05T17:12:39Z</time>
      </trkpt>
      <trkpt lat="45.23171" lon="5.77881">
        <ele>514.8</ele>
        <time>2017-04-05T17:12:41Z</time>
      </trkpt>
      <trkpt lat="45.23167" lon="5.77891">
        <ele>515.4</ele>
        <time>2017-04-05T17:12:43Z</time>
      </trkpt>
      <trkpt lat="45.23159" lon="5.77904">
        <ele>515.6</ele>
        <time>2017-04-05T17:12:45Z</time>
      </trkpt>
      <trkpt lat="45.2315" lon="5.77915">
        <ele>517.2</ele>
        <time>2017-04-05T17:12:47Z</time>
      </trkpt>
      <trkpt lat="45.23145" lon="5.77923">
        <ele>519.3</ele>
        <time>2017-04-05T17:12:49Z</time>
      </trkpt>
      <trkpt lat="45.23138" lon="5.77935">
        <ele>519.9</ele>
        <time>2017-04-05T17:12:51Z</time>
      </trkpt>
      <trkpt lat="45.23134" lon="5.7794">
        <ele>520.1</ele>
        <time>2017-04-05T17:12:53Z</time>
      </trkpt>
      <trkpt lat="45.23125" lon="5.77939">
        <ele>520.2</ele>
        <time>2017-04-05T17:12:55Z</time>
      </trkpt>
      <trkpt lat="45.23122" lon="5.77933">
        <ele>520.1</ele>
        <time>2017-04-05T17:12:57Z</time>
      </trkpt>
      <trkpt lat="45.23116" lon="5.77925">
        <ele>520.1</ele>
        <time>2017-04-05T17:12:59Z</time>
      </trkpt>
      <trkpt lat="45.23107" lon="5.77914">
        <ele>520.3</ele>
        <time>2017-04-05T17:13:03Z</time>
      </trkpt>
      <trkpt lat="45.23104" lon="5.77909">
        <ele>520.6</ele>
        <time>2017-04-05T17:13:07Z</time>
      </trkpt>
      <trkpt lat="45.23101" lon="5.77916">
        <ele>527.5</ele>
        <time>2017-04-05T17:13:55Z</time>
      </trkpt>
      <trkpt lat="45.23101" lon="5.77923">
        <ele>528.4</ele>
        <time>2017-04-05T17:14:03Z</time>
      </trkpt>
      <trkpt lat="45.23104" lon="5.7793">
        <ele>530.5</ele>
        <time>2017-04-05T17:14:15Z</time>
      </trkpt>
      <trkpt lat="45.23108" lon="5.7793">
        <ele>530.8</ele>
        <time>2017-04-05T17:14:17Z</time>
      </trkpt>
      <trkpt lat="45.23114" lon="5.77938">
        <ele>531.8</ele>
        <time>2017-04-05T17:14:21Z</time>
      </trkpt>
      <trkpt lat="45.23121" lon="5.77939">
        <ele>532.5</ele>
        <time>2017-04-05T17:14:25Z</time>
      </trkpt>
      <trkpt lat="45.23124" lon="5.77927">
        <ele>532.9</ele>
        <time>2017-04-05T17:14:27Z</time>
      </trkpt>
      <trkpt lat="45.23128" lon="5.77917">
        <ele>533.1</ele>
        <time>2017-04-05T17:14:29Z</time>
      </trkpt>
      <trkpt lat="45.2313" lon="5.77905">
        <ele>534.1</ele>
        <time>2017-04-05T17:14:35Z</time>
      </trkpt>
      <trkpt lat="45.23137" lon="5.77897">
        <ele>534.4</ele>
        <time>2017-04-05T17:14:37Z</time>
      </trkpt>
      <trkpt lat="45.23138" lon="5.77891">
        <ele>534.7</ele>
        <time>2017-04-05T17:14:41Z</time>
      </trkpt>
      <trkpt lat="45.2314" lon="5.77883">
        <ele>535</ele>
        <time>2017-04-05T17:14:43Z</time>
      </trkpt>
      <trkpt lat="45.2315" lon="5.77869">
        <ele>536</ele>
        <time>2017-04-05T17:14:49Z</time>
      </trkpt>
      <trkpt lat="45.23157" lon="5.77862">
        <ele>536.4</ele>
        <time>2017-04-05T17:14:51Z</time>
      </trkpt>
      <trkpt lat="45.2316" lon="5.77857">
        <ele>537.3</ele>
        <time>2017-04-05T17:14:55Z</time>
      </trkpt>
      <trkpt lat="45.23165" lon="5.7785">
        <ele>537.6</ele>
        <time>2017-04-05T17:14:59Z</time>
      </trkpt>
      <trkpt lat="45.23169" lon="5.77844">
        <ele>537.6</ele>
        <time>2017-04-05T17:15:01Z</time>
      </trkpt>
      <trkpt lat="45.23174" lon="5.77837">
        <ele>537.6</ele>
        <time>2017-04-05T17:15:03Z</time>
      </trkpt>
      <trkpt lat="45.2318" lon="5.77833">
        <ele>538</ele>
        <time>2017-04-05T17:15:07Z</time>
      </trkpt>
      <trkpt lat="45.23186" lon="5.7783">
        <ele>538.2</ele>
        <time>2017-04-05T17:15:11Z</time>
      </trkpt>
      <trkpt lat="45.23191" lon="5.77827">
        <ele>538.4</ele>
        <time>2017-04-05T17:15:15Z</time>
      </trkpt>
      <trkpt lat="45.23199" lon="5.7783">
        <ele>542.9</ele>
        <time>2017-04-05T17:15:41Z</time>
      </trkpt>
      <trkpt lat="45.23207" lon="5.77836">
        <ele>543.3</ele>
        <time>2017-04-05T17:15:43Z</time>
      </trkpt>
      <trkpt lat="45.23211" lon="5.77839">
        <ele>543.5</ele>
        <time>2017-04-05T17:15:45Z</time>
      </trkpt>
      <trkpt lat="45.23216" lon="5.77847">
        <ele>543.6</ele>
        <time>2017-04-05T17:15:47Z</time>
      </trkpt>
      <trkpt lat="45.23219" lon="5.77864">
        <ele>543.7</ele>
        <time>2017-04-05T17:15:49Z</time>
      </trkpt>
      <trkpt lat="45.23222" lon="5.77878">
        <ele>542.9</ele>
        <time>2017-04-05T17:15:51Z</time>
      </trkpt>
      <trkpt lat="45.2322" lon="5.77897">
        <ele>541.9</ele>
        <time>2017-04-05T17:15:53Z</time>
      </trkpt>
      <trkpt lat="45.23218" lon="5.77921">
        <ele>541.8</ele>
        <time>2017-04-05T17:15:55Z</time>
      </trkpt>
      <trkpt lat="45.23222" lon="5.77942">
        <ele>542.4</ele>
        <time>2017-04-05T17:15:57Z</time>
      </trkpt>
      <trkpt lat="45.2323" lon="5.77959">
        <ele>542</ele>
        <time>2017-04-05T17:15:59Z</time>
      </trkpt>
      <trkpt lat="45.23233" lon="5.77965">
        <ele>541.1</ele>
        <time>2017-04-05T17:16:03Z</time>
      </trkpt>
      <trkpt lat="45.23229" lon="5.7796">
        <ele>541.2</ele>
        <time>2017-04-05T17:16:15Z</time>
      </trkpt>
      <trkpt lat="45.2323" lon="5.77972">
        <ele>539.6</ele>
        <time>2017-04-05T17:17:42Z</time>
      </trkpt>
      <trkpt lat="45.23232" lon="5.77982">
        <ele>539.5</ele>
        <time>2017-04-05T17:17:44Z</time>
      </trkpt>
      <trkpt lat="45.23236" lon="5.77995">
        <ele>539</ele>
        <time>2017-04-05T17:17:46Z</time>
      </trkpt>
      <trkpt lat="45.2324" lon="5.78006">
        <ele>538.8</ele>
        <time>2017-04-05T17:17:48Z</time>
      </trkpt>
      <trkpt lat="45.23241" lon="5.78018">
        <ele>536.4</ele>
        <time>2017-04-05T17:17:50Z</time>
      </trkpt>
      <trkpt lat="45.2324" lon="5.78036">
        <ele>535.3</ele>
        <time>2017-04-05T17:17:52Z</time>
      </trkpt>
      <trkpt lat="45.23237" lon="5.7806">
        <ele>535.3</ele>
        <time>2017-04-05T17:17:54Z</time>
      </trkpt>
      <trkpt lat="45.23229" lon="5.78083">
        <ele>534</ele>
        <time>2017-04-05T17:17:56Z</time>
      </trkpt>
      <trkpt lat="45.23223" lon="5.78101">
        <ele>532.1</ele>
        <time>2017-04-05T17:17:58Z</time>
      </trkpt>
      <trkpt lat="45.23217" lon="5.78121">
        <ele>528.7</ele>
        <time>2017-04-05T17:18:00Z</time>
      </trkpt>
      <trkpt lat="45.23221" lon="5.78143">
        <ele>526</ele>
        <time>2017-04-05T17:18:02Z</time>
      </trkpt>
      <trkpt lat="45.23221" lon="5.78159">
        <ele>525.2</ele>
        <time>2017-04-05T17:18:04Z</time>
      </trkpt>
      <trkpt lat="45.23219" lon="5.78177">
        <ele>526.2</ele>
        <time>2017-04-05T17:18:06Z</time>
      </trkpt>
      <trkpt lat="45.23215" lon="5.78191">
        <ele>525.9</ele>
        <time>2017-04-05T17:18:08Z</time>
      </trkpt>
      <trkpt lat="45.23205" lon="5.78201">
        <ele>525.6</ele>
        <time>2017-04-05T17:18:10Z</time>
      </trkpt>
      <trkpt lat="45.23197" lon="5.78215">
        <ele>525.7</ele>
        <time>2017-04-05T17:18:12Z</time>
      </trkpt>
      <trkpt lat="45.2319" lon="5.78227">
        <ele>525</ele>
        <time>2017-04-05T17:18:14Z</time>
      </trkpt>
      <trkpt lat="45.23185" lon="5.78232">
        <ele>523.4</ele>
        <time>2017-04-05T17:18:16Z</time>
      </trkpt>
      <trkpt lat="45.23181" lon="5.78222">
        <ele>514.4</ele>
        <time>2017-04-05T17:19:14Z</time>
      </trkpt>
      <trkpt lat="45.23176" lon="5.7822">
        <ele>512.4</ele>
        <time>2017-04-05T17:19:18Z</time>
      </trkpt>
      <trkpt lat="45.23174" lon="5.78227">
        <ele>509.8</ele>
        <time>2017-04-05T17:19:27Z</time>
      </trkpt>
      <trkpt lat="45.23169" lon="5.7824">
        <ele>508.1</ele>
        <time>2017-04-05T17:19:31Z</time>
      </trkpt>
      <trkpt lat="45.23165" lon="5.78249">
        <ele>505.7</ele>
        <time>2017-04-05T17:19:33Z</time>
      </trkpt>
      <trkpt lat="45.23157" lon="5.78258">
        <ele>502.7</ele>
        <time>2017-04-05T17:19:35Z</time>
      </trkpt>
      <trkpt lat="45.23146" lon="5.78269">
        <ele>498.9</ele>
        <time>2017-04-05T17:19:37Z</time>
      </trkpt>
      <trkpt lat="45.2314" lon="5.78284">
        <ele>496.2</ele>
        <time>2017-04-05T17:19:39Z</time>
      </trkpt>
      <trkpt lat="45.23137" lon="5.78295">
        <ele>493.4</ele>
        <time>2017-04-05T17:19:41Z</time>
      </trkpt>
      <trkpt lat="45.23135" lon="5.78304">
        <ele>492.3</ele>
        <time>2017-04-05T17:19:43Z</time>
      </trkpt>
      <trkpt lat="45.23132" lon="5.7832">
        <ele>491.1</ele>
        <time>2017-04-05T17:19:47Z</time>
      </trkpt>
      <trkpt lat="45.23136" lon="5.78326">
        <ele>490.5</ele>
        <time>2017-04-05T17:19:49Z</time>
      </trkpt>
      <trkpt lat="45.23138" lon="5.78332">
        <ele>489.8</ele>
        <time>2017-04-05T17:19:51Z</time>
      </trkpt>
      <trkpt lat="45.23139" lon="5.78344">
        <ele>489</ele>
        <time>2017-04-05T17:19:53Z</time>
      </trkpt>
      <trkpt lat="45.23144" lon="5.78359">
        <ele>484.9</ele>
        <time>2017-04-05T17:19:55Z</time>
      </trkpt>
      <trkpt lat="45.23149" lon="5.78378">
        <ele>481.6</ele>
        <time>2017-04-05T17:19:57Z</time>
      </trkpt>
      <trkpt lat="45.23154" lon="5.78405">
        <ele>477.1</ele>
        <time>2017-04-05T17:19:59Z</time>
      </trkpt>
      <trkpt lat="45.23159" lon="5.78433">
        <ele>471.9</ele>
        <time>2017-04-05T17:20:01Z</time>
      </trkpt>
      <trkpt lat="45.23172" lon="5.78457">
        <ele>465.7</ele>
        <time>2017-04-05T17:20:03Z</time>
      </trkpt>
      <trkpt lat="45.23183" lon="5.7848">
        <ele>460</ele>
        <time>2017-04-05T17:20:05Z</time>
      </trkpt>
      <trkpt lat="45.23183" lon="5.7851">
        <ele>456.8</ele>
        <time>2017-04-05T17:20:07Z</time>
      </trkpt>
      <trkpt lat="45.23181" lon="5.7854">
        <ele>454.6</ele>
        <time>2017-04-05T17:20:09Z</time>
      </trkpt>
      <trkpt lat="45.23177" lon="5.78572">
        <ele>452.7</ele>
        <time>2017-04-05T17:20:11Z</time>
      </trkpt>
      <trkpt lat="45.23172" lon="5.7861">
        <ele>449.9</ele>
        <time>2017-04-05T17:20:13Z</time>
      </trkpt>
      <trkpt lat="45.23167" lon="5.78649">
        <ele>446.6</ele>
        <time>2017-04-05T17:20:15Z</time>
      </trkpt>
      <trkpt lat="45.23161" lon="5.78686">
        <ele>442.4</ele>
        <time>2017-04-05T17:20:17Z</time>
      </trkpt>
      <trkpt lat="45.23157" lon="5.78723">
        <ele>439.4</ele>
        <time>2017-04-05T17:20:19Z</time>
      </trkpt>
      <trkpt lat="45.23155" lon="5.78748">
        <ele>436.2</ele>
        <time>2017-04-05T17:20:21Z</time>
      </trkpt>
      <trkpt lat="45.23158" lon="5.78773">
        <ele>432.5</ele>
        <time>2017-04-05T17:20:23Z</time>
      </trkpt>
      <trkpt lat="45.23175" lon="5.78796">
        <ele>429.2</ele>
        <time>2017-04-05T17:20:25Z</time>
      </trkpt>
      <trkpt lat="45.23191" lon="5.7882">
        <ele>427.3</ele>
        <time>2017-04-05T17:20:27Z</time>
      </trkpt>
      <trkpt lat="45.23204" lon="5.78844">
        <ele>426</ele>
        <time>2017-04-05T17:20:29Z</time>
      </trkpt>
      <trkpt lat="45.23213" lon="5.78868">
        <ele>424.9</ele>
        <time>2017-04-05T17:20:31Z</time>
      </trkpt>
      <trkpt lat="45.2322" lon="5.78887">
        <ele>424.3</ele>
        <time>2017-04-05T17:20:33Z</time>
      </trkpt>
      <trkpt lat="45.23212" lon="5.78888">
        <ele>422.3</ele>
        <time>2017-04-05T17:20:35Z</time>
      </trkpt>
      <trkpt lat="45.232" lon="5.78865">
        <ele>421.3</ele>
        <time>2017-04-05T17:20:37Z</time>
      </trkpt>
      <trkpt lat="45.23185" lon="5.78844">
        <ele>421</ele>
        <time>2017-04-05T17:20:39Z</time>
      </trkpt>
      <trkpt lat="45.23169" lon="5.7883">
        <ele>420.3</ele>
        <time>2017-04-05T17:20:41Z</time>
      </trkpt>
      <trkpt lat="45.23153" lon="5.7882">
        <ele>416.5</ele>
        <time>2017-04-05T17:20:43Z</time>
      </trkpt>
      <trkpt lat="45.23138" lon="5.78812">
        <ele>411.8</ele>
        <time>2017-04-05T17:20:45Z</time>
      </trkpt>
      <trkpt lat="45.23122" lon="5.78806">
        <ele>408.2</ele>
        <time>2017-04-05T17:20:47Z</time>
      </trkpt>
      <trkpt lat="45.23106" lon="5.78801">
        <ele>405</ele>
        <time>2017-04-05T17:20:49Z</time>
      </trkpt>
      <trkpt lat="45.2309" lon="5.78799">
        <ele>401.8</ele>
        <time>2017-04-05T17:20:51Z</time>
      </trkpt>
      <trkpt lat="45.23073" lon="5.78798">
        <ele>399</ele>
        <time>2017-04-05T17:20:53Z</time>
      </trkpt>
      <trkpt lat="45.23058" lon="5.78797">
        <ele>396.2</ele>
        <time>2017-04-05T17:20:55Z</time>
      </trkpt>
      <trkpt lat="45.23047" lon="5.78802">
        <ele>395.1</ele>
        <time>2017-04-05T17:20:57Z</time>
      </trkpt>
      <trkpt lat="45.23047" lon="5.78816">
        <ele>394.5</ele>
        <time>2017-04-05T17:20:59Z</time>
      </trkpt>
      <trkpt lat="45.23049" lon="5.78824">
        <ele>394.2</ele>
        <time>2017-04-05T17:21:01Z</time>
      </trkpt>
      <trkpt lat="45.23053" lon="5.78832">
        <ele>393.7</ele>
        <time>2017-04-05T17:21:03Z</time>
      </trkpt>
      <trkpt lat="45.23059" lon="5.78838">
        <ele>393.5</ele>
        <time>2017-04-05T17:21:07Z</time>
      </trkpt>
      <trkpt lat="45.23055" lon="5.7884">
        <ele>393.6</ele>
        <time>2017-04-05T17:21:13Z</time>
      </trkpt>
      <trkpt lat="45.23048" lon="5.78844">
        <ele>393</ele>
        <time>2017-04-05T17:21:15Z</time>
      </trkpt>
      <trkpt lat="45.23041" lon="5.78857">
        <ele>392.2</ele>
        <time>2017-04-05T17:21:17Z</time>
      </trkpt>
      <trkpt lat="45.23034" lon="5.7887">
        <ele>391.3</ele>
        <time>2017-04-05T17:21:19Z</time>
      </trkpt>
      <trkpt lat="45.23035" lon="5.78877">
        <ele>390.2</ele>
        <time>2017-04-05T17:21:27Z</time>
      </trkpt>
      <trkpt lat="45.23036" lon="5.7889">
        <ele>389.8</ele>
        <time>2017-04-05T17:21:29Z</time>
      </trkpt>
      <trkpt lat="45.23036" lon="5.78907">
        <ele>387.9</ele>
        <time>2017-04-05T17:21:31Z</time>
      </trkpt>
      <trkpt lat="45.23037" lon="5.78921">
        <ele>384.1</ele>
        <time>2017-04-05T17:21:33Z</time>
      </trkpt>
      <trkpt lat="45.23036" lon="5.78935">
        <ele>381.5</ele>
        <time>2017-04-05T17:21:35Z</time>
      </trkpt>
      <trkpt lat="45.23029" lon="5.78942">
        <ele>377.6</ele>
        <time>2017-04-05T17:21:37Z</time>
      </trkpt>
      <trkpt lat="45.23021" lon="5.78951">
        <ele>374.1</ele>
        <time>2017-04-05T17:21:39Z</time>
      </trkpt>
      <trkpt lat="45.23011" lon="5.78961">
        <ele>371.9</ele>
        <time>2017-04-05T17:21:41Z</time>
      </trkpt>
      <trkpt lat="45.22997" lon="5.78968">
        <ele>371.4</ele>
        <time>2017-04-05T17:21:43Z</time>
      </trkpt>
      <trkpt lat="45.22985" lon="5.78974">
        <ele>370.3</ele>
        <time>2017-04-05T17:21:45Z</time>
      </trkpt>
      <trkpt lat="45.22975" lon="5.78982">
        <ele>368.8</ele>
        <time>2017-04-05T17:21:47Z</time>
      </trkpt>
      <trkpt lat="45.22984" lon="5.78988">
        <ele>368.1</ele>
        <time>2017-04-05T17:22:01Z</time>
      </trkpt>
      <trkpt lat="45.22988" lon="5.79">
        <ele>369.9</ele>
        <time>2017-04-05T17:22:27Z</time>
      </trkpt>
      <trkpt lat="45.22984" lon="5.79012">
        <ele>370.3</ele>
        <time>2017-04-05T17:22:29Z</time>
      </trkpt>
      <trkpt lat="45.22978" lon="5.79018">
        <ele>370.9</ele>
        <time>2017-04-05T17:22:31Z</time>
      </trkpt>
      <trkpt lat="45.22972" lon="5.79025">
        <ele>371.4</ele>
        <time>2017-04-05T17:22:33Z</time>
      </trkpt>
      <trkpt lat="45.22966" lon="5.79039">
        <ele>372.5</ele>
        <time>2017-04-05T17:22:35Z</time>
      </trkpt>
      <trkpt lat="45.22964" lon="5.79051">
        <ele>371.5</ele>
        <time>2017-04-05T17:22:37Z</time>
      </trkpt>
      <trkpt lat="45.22965" lon="5.79074">
        <ele>371.1</ele>
        <time>2017-04-05T17:22:43Z</time>
      </trkpt>
      <trkpt lat="45.22969" lon="5.79083">
        <ele>371.2</ele>
        <time>2017-04-05T17:22:45Z</time>
      </trkpt>
      <trkpt lat="45.22973" lon="5.79093">
        <ele>371.2</ele>
        <time>2017-04-05T17:22:47Z</time>
      </trkpt>
      <trkpt lat="45.22978" lon="5.79103">
        <ele>370.3</ele>
        <time>2017-04-05T17:22:49Z</time>
      </trkpt>
      <trkpt lat="45.22983" lon="5.79111">
        <ele>369.5</ele>
        <time>2017-04-05T17:22:51Z</time>
      </trkpt>
      <trkpt lat="45.22988" lon="5.79117">
        <ele>368.5</ele>
        <time>2017-04-05T17:22:53Z</time>
      </trkpt>
      <trkpt lat="45.22995" lon="5.79125">
        <ele>368</ele>
        <time>2017-04-05T17:22:55Z</time>
      </trkpt>
      <trkpt lat="45.23002" lon="5.79133">
        <ele>367.6</ele>
        <time>2017-04-05T17:22:59Z</time>
      </trkpt>
      <trkpt lat="45.23011" lon="5.79152">
        <ele>367.1</ele>
        <time>2017-04-05T17:23:05Z</time>
      </trkpt>
      <trkpt lat="45.23013" lon="5.79162">
        <ele>366.9</ele>
        <time>2017-04-05T17:23:07Z</time>
      </trkpt>
      <trkpt lat="45.23013" lon="5.79171">
        <ele>366.7</ele>
        <time>2017-04-05T17:23:09Z</time>
      </trkpt>
      <trkpt lat="45.23012" lon="5.79179">
        <ele>366.4</ele>
        <time>2017-04-05T17:23:11Z</time>
      </trkpt>
      <trkpt lat="45.23012" lon="5.79188">
        <ele>366.2</ele>
        <time>2017-04-05T17:23:13Z</time>
      </trkpt>
      <trkpt lat="45.23013" lon="5.79197">
        <ele>365.9</ele>
        <time>2017-04-05T17:23:15Z</time>
      </trkpt>
      <trkpt lat="45.23014" lon="5.79208">
        <ele>365.2</ele>
        <time>2017-04-05T17:23:17Z</time>
      </trkpt>
      <trkpt lat="45.23015" lon="5.79221">
        <ele>363.9</ele>
        <time>2017-04-05T17:23:19Z</time>
      </trkpt>
      <trkpt lat="45.23016" lon="5.79232">
        <ele>363.5</ele>
        <time>2017-04-05T17:23:21Z</time>
      </trkpt>
      <trkpt lat="45.23017" lon="5.79241">
        <ele>363.4</ele>
        <time>2017-04-05T17:23:23Z</time>
      </trkpt>
      <trkpt lat="45.23018" lon="5.79251">
        <ele>363.6</ele>
        <time>2017-04-05T17:23:25Z</time>
      </trkpt>
      <trkpt lat="45.23019" lon="5.7926">
        <ele>363.7</ele>
        <time>2017-04-05T17:23:27Z</time>
      </trkpt>
      <trkpt lat="45.23021" lon="5.79271">
        <ele>364.3</ele>
        <time>2017-04-05T17:23:29Z</time>
      </trkpt>
      <trkpt lat="45.23022" lon="5.79281">
        <ele>364.6</ele>
        <time>2017-04-05T17:23:31Z</time>
      </trkpt>
      <trkpt lat="45.23024" lon="5.79292">
        <ele>364.8</ele>
        <time>2017-04-05T17:23:33Z</time>
      </trkpt>
      <trkpt lat="45.23024" lon="5.79302">
        <ele>364.8</ele>
        <time>2017-04-05T17:23:35Z</time>
      </trkpt>
      <trkpt lat="45.23025" lon="5.79311">
        <ele>364.9</ele>
        <time>2017-04-05T17:23:37Z</time>
      </trkpt>
      <trkpt lat="45.23025" lon="5.7932">
        <ele>364.9</ele>
        <time>2017-04-05T17:23:39Z</time>
      </trkpt>
      <trkpt lat="45.23026" lon="5.7933">
        <ele>365</ele>
        <time>2017-04-05T17:23:41Z</time>
      </trkpt>
      <trkpt lat="45.23027" lon="5.79342">
        <ele>363.7</ele>
        <time>2017-04-05T17:23:43Z</time>
      </trkpt>
      <trkpt lat="45.23028" lon="5.79352">
        <ele>363.4</ele>
        <time>2017-04-05T17:23:45Z</time>
      </trkpt>
      <trkpt lat="45.23029" lon="5.79363">
        <ele>363.3</ele>
        <time>2017-04-05T17:23:47Z</time>
      </trkpt>
      <trkpt lat="45.2303" lon="5.79373">
        <ele>363.2</ele>
        <time>2017-04-05T17:23:49Z</time>
      </trkpt>
      <trkpt lat="45.23031" lon="5.7938">
        <ele>363.2</ele>
        <time>2017-04-05T17:23:51Z</time>
      </trkpt>
      <trkpt lat="45.23032" lon="5.79388">
        <ele>363.3</ele>
        <time>2017-04-05T17:23:53Z</time>
      </trkpt>
      <trkpt lat="45.23033" lon="5.79396">
        <ele>363.3</ele>
        <time>2017-04-05T17:23:55Z</time>
      </trkpt>
      <trkpt lat="45.23034" lon="5.79405">
        <ele>363.4</ele>
        <time>2017-04-05T17:23:57Z</time>
      </trkpt>
      <trkpt lat="45.23034" lon="5.79412">
        <ele>363.5</ele>
        <time>2017-04-05T17:23:59Z</time>
      </trkpt>
      <trkpt lat="45.23033" lon="5.79422">
        <ele>363.8</ele>
        <time>2017-04-05T17:24:03Z</time>
      </trkpt>
      <trkpt lat="45.23029" lon="5.7943">
        <ele>363.7</ele>
        <time>2017-04-05T17:24:07Z</time>
      </trkpt>
      <trkpt lat="45.23032" lon="5.79441">
        <ele>363.3</ele>
        <time>2017-04-05T17:24:25Z</time>
      </trkpt>
      <trkpt lat="45.23034" lon="5.79449">
        <ele>363.3</ele>
        <time>2017-04-05T17:24:27Z</time>
      </trkpt>
      <trkpt lat="45.23034" lon="5.79458">
        <ele>363.2</ele>
        <time>2017-04-05T17:24:29Z</time>
      </trkpt>
      <trkpt lat="45.23035" lon="5.79468">
        <ele>363.1</ele>
        <time>2017-04-05T17:24:31Z</time>
      </trkpt>
      <trkpt lat="45.23035" lon="5.7948">
        <ele>361.8</ele>
        <time>2017-04-05T17:24:33Z</time>
      </trkpt>
      <trkpt lat="45.23035" lon="5.79491">
        <ele>361.2</ele>
        <time>2017-04-05T17:24:35Z</time>
      </trkpt>
      <trkpt lat="45.23035" lon="5.79503">
        <ele>360.4</ele>
        <time>2017-04-05T17:24:37Z</time>
      </trkpt>
      <trkpt lat="45.23036" lon="5.79515">
        <ele>360.4</ele>
        <time>2017-04-05T17:24:39Z</time>
      </trkpt>
      <trkpt lat="45.23037" lon="5.79525">
        <ele>360.7</ele>
        <time>2017-04-05T17:24:41Z</time>
      </trkpt>
      <trkpt lat="45.23039" lon="5.79535">
        <ele>360.8</ele>
        <time>2017-04-05T17:24:43Z</time>
      </trkpt>
      <trkpt lat="45.23041" lon="5.79546">
        <ele>361.2</ele>
        <time>2017-04-05T17:24:45Z</time>
      </trkpt>
      <trkpt lat="45.23044" lon="5.79557">
        <ele>361.3</ele>
        <time>2017-04-05T17:24:47Z</time>
      </trkpt>
      <trkpt lat="45.23047" lon="5.79566">
        <ele>360.6</ele>
        <time>2017-04-05T17:24:49Z</time>
      </trkpt>
      <trkpt lat="45.2305" lon="5.79576">
        <ele>360.3</ele>
        <time>2017-04-05T17:24:51Z</time>
      </trkpt>
      <trkpt lat="45.23053" lon="5.79587">
        <ele>360.1</ele>
        <time>2017-04-05T17:24:53Z</time>
      </trkpt>
      <trkpt lat="45.23057" lon="5.79596">
        <ele>359.9</ele>
        <time>2017-04-05T17:24:55Z</time>
      </trkpt>
      <trkpt lat="45.23061" lon="5.79607">
        <ele>359.8</ele>
        <time>2017-04-05T17:24:57Z</time>
      </trkpt>
      <trkpt lat="45.23064" lon="5.79618">
        <ele>358.9</ele>
        <time>2017-04-05T17:24:59Z</time>
      </trkpt>
      <trkpt lat="45.23068" lon="5.79628">
        <ele>358.6</ele>
        <time>2017-04-05T17:25:01Z</time>
      </trkpt>
      <trkpt lat="45.23073" lon="5.79637">
        <ele>358.2</ele>
        <time>2017-04-05T17:25:03Z</time>
      </trkpt>
      <trkpt lat="45.23078" lon="5.79649">
        <ele>357.4</ele>
        <time>2017-04-05T17:25:05Z</time>
      </trkpt>
      <trkpt lat="45.23081" lon="5.79662">
        <ele>356.8</ele>
        <time>2017-04-05T17:25:07Z</time>
      </trkpt>
      <trkpt lat="45.23084" lon="5.79674">
        <ele>356.5</ele>
        <time>2017-04-05T17:25:09Z</time>
      </trkpt>
      <trkpt lat="45.23087" lon="5.79686">
        <ele>356.2</ele>
        <time>2017-04-05T17:25:11Z</time>
      </trkpt>
      <trkpt lat="45.23089" lon="5.79698">
        <ele>355.9</ele>
        <time>2017-04-05T17:25:13Z</time>
      </trkpt>
      <trkpt lat="45.23093" lon="5.7971">
        <ele>356.2</ele>
        <time>2017-04-05T17:25:15Z</time>
      </trkpt>
      <trkpt lat="45.23099" lon="5.79722">
        <ele>357.2</ele>
        <time>2017-04-05T17:25:17Z</time>
      </trkpt>
      <trkpt lat="45.23105" lon="5.79734">
        <ele>358.1</ele>
        <time>2017-04-05T17:25:19Z</time>
      </trkpt>
      <trkpt lat="45.2311" lon="5.79745">
        <ele>358.6</ele>
        <time>2017-04-05T17:25:21Z</time>
      </trkpt>
      <trkpt lat="45.23114" lon="5.79755">
        <ele>358.9</ele>
        <time>2017-04-05T17:25:23Z</time>
      </trkpt>
      <trkpt lat="45.23119" lon="5.79764">
        <ele>358.9</ele>
        <time>2017-04-05T17:25:25Z</time>
      </trkpt>
      <trkpt lat="45.23124" lon="5.79772">
        <ele>359.5</ele>
        <time>2017-04-05T17:25:27Z</time>
      </trkpt>
      <trkpt lat="45.23129" lon="5.79778">
        <ele>359.3</ele>
        <time>2017-04-05T17:25:29Z</time>
      </trkpt>
      <trkpt lat="45.23133" lon="5.79785">
        <ele>359.4</ele>
        <time>2017-04-05T17:25:31Z</time>
      </trkpt>
      <trkpt lat="45.23136" lon="5.79794">
        <ele>359.5</ele>
        <time>2017-04-05T17:25:33Z</time>
      </trkpt>
      <trkpt lat="45.23133" lon="5.79804">
        <ele>359.3</ele>
        <time>2017-04-05T17:25:35Z</time>
      </trkpt>
      <trkpt lat="45.23123" lon="5.79812">
        <ele>358.6</ele>
        <time>2017-04-05T17:25:37Z</time>
      </trkpt>
      <trkpt lat="45.23111" lon="5.79821">
        <ele>358.2</ele>
        <time>2017-04-05T17:25:39Z</time>
      </trkpt>
      <trkpt lat="45.23099" lon="5.7983">
        <ele>358.8</ele>
        <time>2017-04-05T17:25:41Z</time>
      </trkpt>
      <trkpt lat="45.23088" lon="5.79842">
        <ele>360</ele>
        <time>2017-04-05T17:25:43Z</time>
      </trkpt>
      <trkpt lat="45.23071" lon="5.79858">
        <ele>361</ele>
        <time>2017-04-05T17:25:45Z</time>
      </trkpt>
      <trkpt lat="45.23055" lon="5.79875">
        <ele>359.2</ele>
        <time>2017-04-05T17:25:47Z</time>
      </trkpt>
      <trkpt lat="45.23035" lon="5.79892">
        <ele>357.7</ele>
        <time>2017-04-05T17:25:49Z</time>
      </trkpt>
      <trkpt lat="45.23016" lon="5.79909">
        <ele>356.1</ele>
        <time>2017-04-05T17:25:51Z</time>
      </trkpt>
      <trkpt lat="45.23" lon="5.79923">
        <ele>354.6</ele>
        <time>2017-04-05T17:25:53Z</time>
      </trkpt>
      <trkpt lat="45.22983" lon="5.79935">
        <ele>353.9</ele>
        <time>2017-04-05T17:25:55Z</time>
      </trkpt>
      <trkpt lat="45.22968" lon="5.79947">
        <ele>354.7</ele>
        <time>2017-04-05T17:25:57Z</time>
      </trkpt>
      <trkpt lat="45.22954" lon="5.79959">
        <ele>353</ele>
        <time>2017-04-05T17:25:59Z</time>
      </trkpt>
      <trkpt lat="45.22942" lon="5.7997">
        <ele>350.7</ele>
        <time>2017-04-05T17:26:01Z</time>
      </trkpt>
      <trkpt lat="45.22935" lon="5.79977">
        <ele>349</ele>
        <time>2017-04-05T17:26:03Z</time>
      </trkpt>
      <trkpt lat="45.22928" lon="5.79983">
        <ele>348.3</ele>
        <time>2017-04-05T17:26:05Z</time>
      </trkpt>
      <trkpt lat="45.22917" lon="5.79987">
        <ele>347.7</ele>
        <time>2017-04-05T17:26:07Z</time>
      </trkpt>
      <trkpt lat="45.22904" lon="5.79992">
        <ele>347.1</ele>
        <time>2017-04-05T17:26:09Z</time>
      </trkpt>
      <trkpt lat="45.2289" lon="5.79997">
        <ele>344.6</ele>
        <time>2017-04-05T17:26:11Z</time>
      </trkpt>
      <trkpt lat="45.22876" lon="5.80005">
        <ele>341.5</ele>
        <time>2017-04-05T17:26:13Z</time>
      </trkpt>
      <trkpt lat="45.2286" lon="5.80015">
        <ele>337.8</ele>
        <time>2017-04-05T17:26:15Z</time>
      </trkpt>
      <trkpt lat="45.22848" lon="5.80024">
        <ele>335.2</ele>
        <time>2017-04-05T17:26:17Z</time>
      </trkpt>
      <trkpt lat="45.22837" lon="5.80033">
        <ele>332.9</ele>
        <time>2017-04-05T17:26:19Z</time>
      </trkpt>
      <trkpt lat="45.22827" lon="5.80043">
        <ele>331.9</ele>
        <time>2017-04-05T17:26:21Z</time>
      </trkpt>
      <trkpt lat="45.22815" lon="5.80057">
        <ele>329.6</ele>
        <time>2017-04-05T17:26:23Z</time>
      </trkpt>
      <trkpt lat="45.22803" lon="5.80071">
        <ele>327.5</ele>
        <time>2017-04-05T17:26:25Z</time>
      </trkpt>
      <trkpt lat="45.22791" lon="5.80087">
        <ele>326.4</ele>
        <time>2017-04-05T17:26:27Z</time>
      </trkpt>
      <trkpt lat="45.22779" lon="5.80104">
        <ele>326.8</ele>
        <time>2017-04-05T17:26:29Z</time>
      </trkpt>
      <trkpt lat="45.22764" lon="5.80118">
        <ele>327.1</ele>
        <time>2017-04-05T17:26:31Z</time>
      </trkpt>
      <trkpt lat="45.2275" lon="5.80133">
        <ele>328.2</ele>
        <time>2017-04-05T17:26:33Z</time>
      </trkpt>
      <trkpt lat="45.22737" lon="5.80147">
        <ele>329.9</ele>
        <time>2017-04-05T17:26:35Z</time>
      </trkpt>
      <trkpt lat="45.22724" lon="5.80159">
        <ele>330.3</ele>
        <time>2017-04-05T17:26:37Z</time>
      </trkpt>
      <trkpt lat="45.22714" lon="5.80171">
        <ele>330.1</ele>
        <time>2017-04-05T17:26:39Z</time>
      </trkpt>
      <trkpt lat="45.22708" lon="5.80178">
        <ele>329.3</ele>
        <time>2017-04-05T17:26:41Z</time>
      </trkpt>
      <trkpt lat="45.22703" lon="5.80182">
        <ele>328.1</ele>
        <time>2017-04-05T17:26:43Z</time>
      </trkpt>
      <trkpt lat="45.22697" lon="5.80185">
        <ele>327.2</ele>
        <time>2017-04-05T17:26:45Z</time>
      </trkpt>
      <trkpt lat="45.22692" lon="5.80189">
        <ele>326.8</ele>
        <time>2017-04-05T17:26:47Z</time>
      </trkpt>
      <trkpt lat="45.22688" lon="5.80197">
        <ele>326.8</ele>
        <time>2017-04-05T17:26:49Z</time>
      </trkpt>
      <trkpt lat="45.22685" lon="5.80207">
        <ele>326.3</ele>
        <time>2017-04-05T17:26:51Z</time>
      </trkpt>
      <trkpt lat="45.22681" lon="5.80217">
        <ele>327.2</ele>
        <time>2017-04-05T17:26:53Z</time>
      </trkpt>
      <trkpt lat="45.22673" lon="5.80225">
        <ele>326.9</ele>
        <time>2017-04-05T17:26:55Z</time>
      </trkpt>
      <trkpt lat="45.22665" lon="5.8023">
        <ele>325.7</ele>
        <time>2017-04-05T17:26:57Z</time>
      </trkpt>
      <trkpt lat="45.22658" lon="5.80235">
        <ele>325.2</ele>
        <time>2017-04-05T17:26:59Z</time>
      </trkpt>
      <trkpt lat="45.22649" lon="5.8024">
        <ele>324.5</ele>
        <time>2017-04-05T17:27:03Z</time>
      </trkpt>
      <trkpt lat="45.22644" lon="5.80241">
        <ele>324</ele>
        <time>2017-04-05T17:27:05Z</time>
      </trkpt>
      <trkpt lat="45.22637" lon="5.8025">
        <ele>323.1</ele>
        <time>2017-04-05T17:27:11Z</time>
      </trkpt>
      <trkpt lat="45.22636" lon="5.80259">
        <ele>322.8</ele>
        <time>2017-04-05T17:27:13Z</time>
      </trkpt>
      <trkpt lat="45.22638" lon="5.80266">
        <ele>322.4</ele>
        <time>2017-04-05T17:27:15Z</time>
      </trkpt>
      <trkpt lat="45.22641" lon="5.80274">
        <ele>322</ele>
        <time>2017-04-05T17:27:17Z</time>
      </trkpt>
      <trkpt lat="45.22644" lon="5.80279">
        <ele>321.5</ele>
        <time>2017-04-05T17:27:19Z</time>
      </trkpt>
      <trkpt lat="45.22646" lon="5.80285">
        <ele>320.9</ele>
        <time>2017-04-05T17:27:21Z</time>
      </trkpt>
      <trkpt lat="45.22652" lon="5.80295">
        <ele>319.7</ele>
        <time>2017-04-05T17:27:25Z</time>
      </trkpt>
      <trkpt lat="45.22657" lon="5.80301">
        <ele>319.1</ele>
        <time>2017-04-05T17:27:27Z</time>
      </trkpt>
      <trkpt lat="45.2266" lon="5.80306">
        <ele>318.6</ele>
        <time>2017-04-05T17:27:29Z</time>
      </trkpt>
      <trkpt lat="45.22662" lon="5.80312">
        <ele>318</ele>
        <time>2017-04-05T17:27:31Z</time>
      </trkpt>
      <trkpt lat="45.22661" lon="5.8032">
        <ele>317.5</ele>
        <time>2017-04-05T17:27:33Z</time>
      </trkpt>
      <trkpt lat="45.22659" lon="5.80327">
        <ele>317</ele>
        <time>2017-04-05T17:27:35Z</time>
      </trkpt>
      <trkpt lat="45.22654" lon="5.80335">
        <ele>316.6</ele>
        <time>2017-04-05T17:27:37Z</time>
      </trkpt>
      <trkpt lat="45.22648" lon="5.80342">
        <ele>316.2</ele>
        <time>2017-04-05T17:27:39Z</time>
      </trkpt>
      <trkpt lat="45.22643" lon="5.80349">
        <ele>315.9</ele>
        <time>2017-04-05T17:27:41Z</time>
      </trkpt>
      <trkpt lat="45.22636" lon="5.80357">
        <ele>315.5</ele>
        <time>2017-04-05T17:27:43Z</time>
      </trkpt>
      <trkpt lat="45.22628" lon="5.80364">
        <ele>314.4</ele>
        <time>2017-04-05T17:27:45Z</time>
      </trkpt>
      <trkpt lat="45.22619" lon="5.80376">
        <ele>312</ele>
        <time>2017-04-05T17:27:47Z</time>
      </trkpt>
      <trkpt lat="45.22611" lon="5.80387">
        <ele>309</ele>
        <time>2017-04-05T17:27:49Z</time>
      </trkpt>
      <trkpt lat="45.22603" lon="5.80398">
        <ele>305.4</ele>
        <time>2017-04-05T17:27:51Z</time>
      </trkpt>
      <trkpt lat="45.22595" lon="5.80405">
        <ele>302</ele>
        <time>2017-04-05T17:27:53Z</time>
      </trkpt>
      <trkpt lat="45.22585" lon="5.80405">
        <ele>300.9</ele>
        <time>2017-04-05T17:27:55Z</time>
      </trkpt>
      <trkpt lat="45.22574" lon="5.80401">
        <ele>300.5</ele>
        <time>2017-04-05T17:27:57Z</time>
      </trkpt>
      <trkpt lat="45.22566" lon="5.80392">
        <ele>300.4</ele>
        <time>2017-04-05T17:27:59Z</time>
      </trkpt>
      <trkpt lat="45.22561" lon="5.80387">
        <ele>300.2</ele>
        <time>2017-04-05T17:28:01Z</time>
      </trkpt>
      <trkpt lat="45.22555" lon="5.80381">
        <ele>299.6</ele>
        <time>2017-04-05T17:28:07Z</time>
      </trkpt>
      <trkpt lat="45.22548" lon="5.80373">
        <ele>299.3</ele>
        <time>2017-04-05T17:28:13Z</time>
      </trkpt>
      <trkpt lat="45.22533" lon="5.80362">
        <ele>299.2</ele>
        <time>2017-04-05T17:28:15Z</time>
      </trkpt>
      <trkpt lat="45.22523" lon="5.8036">
        <ele>299</ele>
        <time>2017-04-05T17:28:17Z</time>
      </trkpt>
      <trkpt lat="45.22511" lon="5.80357">
        <ele>297.9</ele>
        <time>2017-04-05T17:28:19Z</time>
      </trkpt>
      <trkpt lat="45.22501" lon="5.80357">
        <ele>294.5</ele>
        <time>2017-04-05T17:28:21Z</time>
      </trkpt>
      <trkpt lat="45.22494" lon="5.80343">
        <ele>292.7</ele>
        <time>2017-04-05T17:28:27Z</time>
      </trkpt>
      <trkpt lat="45.22492" lon="5.80327">
        <ele>289.6</ele>
        <time>2017-04-05T17:28:29Z</time>
      </trkpt>
      <trkpt lat="45.22488" lon="5.80304">
        <ele>283.5</ele>
        <time>2017-04-05T17:28:31Z</time>
      </trkpt>
      <trkpt lat="45.22479" lon="5.80279">
        <ele>277.3</ele>
        <time>2017-04-05T17:28:33Z</time>
      </trkpt>
      <trkpt lat="45.22469" lon="5.80257">
        <ele>273.4</ele>
        <time>2017-04-05T17:28:35Z</time>
      </trkpt>
      <trkpt lat="45.22459" lon="5.80247">
        <ele>270.5</ele>
        <time>2017-04-05T17:28:37Z</time>
      </trkpt>
      <trkpt lat="45.22453" lon="5.80245">
        <ele>269.4</ele>
        <time>2017-04-05T17:28:39Z</time>
      </trkpt>
      <trkpt lat="45.22451" lon="5.80251">
        <ele>267.4</ele>
        <time>2017-04-05T17:28:45Z</time>
      </trkpt>
      <trkpt lat="45.22452" lon="5.80258">
        <ele>266.8</ele>
        <time>2017-04-05T17:28:47Z</time>
      </trkpt>
      <trkpt lat="45.22453" lon="5.80266">
        <ele>266.2</ele>
        <time>2017-04-05T17:28:49Z</time>
      </trkpt>
      <trkpt lat="45.22453" lon="5.80274">
        <ele>264.9</ele>
        <time>2017-04-05T17:29:15Z</time>
      </trkpt>
      <trkpt lat="45.22453" lon="5.80283">
        <ele>264.9</ele>
        <time>2017-04-05T17:29:17Z</time>
      </trkpt>
      <trkpt lat="45.22455" lon="5.80291">
        <ele>264.9</ele>
        <time>2017-04-05T17:29:19Z</time>
      </trkpt>
      <trkpt lat="45.22459" lon="5.80306">
        <ele>265.1</ele>
        <time>2017-04-05T17:29:21Z</time>
      </trkpt>
      <trkpt lat="45.22457" lon="5.80319">
        <ele>265.1</ele>
        <time>2017-04-05T17:29:23Z</time>
      </trkpt>
      <trkpt lat="45.22441" lon="5.80334">
        <ele>264.4</ele>
        <time>2017-04-05T17:29:25Z</time>
      </trkpt>
      <trkpt lat="45.22417" lon="5.80354">
        <ele>263.5</ele>
        <time>2017-04-05T17:29:27Z</time>
      </trkpt>
      <trkpt lat="45.22394" lon="5.80372">
        <ele>263.7</ele>
        <time>2017-04-05T17:29:29Z</time>
      </trkpt>
      <trkpt lat="45.22376" lon="5.80385">
        <ele>263.6</ele>
        <time>2017-04-05T17:29:31Z</time>
      </trkpt>
      <trkpt lat="45.2236" lon="5.80396">
        <ele>263.8</ele>
        <time>2017-04-05T17:29:33Z</time>
      </trkpt>
      <trkpt lat="45.22348" lon="5.80406">
        <ele>261.7</ele>
        <time>2017-04-05T17:29:35Z</time>
      </trkpt>
      <trkpt lat="45.22342" lon="5.8041">
        <ele>259.1</ele>
        <time>2017-04-05T17:29:37Z</time>
      </trkpt>
      <trkpt lat="45.22341" lon="5.80416">
        <ele>258.1</ele>
        <time>2017-04-05T17:29:39Z</time>
      </trkpt>
      <trkpt lat="45.22341" lon="5.80424">
        <ele>257</ele>
        <time>2017-04-05T17:29:43Z</time>
      </trkpt>
      <trkpt lat="45.22343" lon="5.80438">
        <ele>255.8</ele>
        <time>2017-04-05T17:29:47Z</time>
      </trkpt>
      <trkpt lat="45.22345" lon="5.80447">
        <ele>255.2</ele>
        <time>2017-04-05T17:29:49Z</time>
      </trkpt>
      <trkpt lat="45.22349" lon="5.80457">
        <ele>252.9</ele>
        <time>2017-04-05T17:29:51Z</time>
      </trkpt>
      <trkpt lat="45.22352" lon="5.80467">
        <ele>248.9</ele>
        <time>2017-04-05T17:29:53Z</time>
      </trkpt>
      <trkpt lat="45.22357" lon="5.80478">
        <ele>245.9</ele>
        <time>2017-04-05T17:29:55Z</time>
      </trkpt>
      <trkpt lat="45.22361" lon="5.8049">
        <ele>243.2</ele>
        <time>2017-04-05T17:29:57Z</time>
      </trkpt>
      <trkpt lat="45.22365" lon="5.80499">
        <ele>241.9</ele>
        <time>2017-04-05T17:29:59Z</time>
      </trkpt>
      <trkpt lat="45.22369" lon="5.80509">
        <ele>240.5</ele>
        <time>2017-04-05T17:30:01Z</time>
      </trkpt>
      <trkpt lat="45.22374" lon="5.80521">
        <ele>239.9</ele>
        <time>2017-04-05T17:30:03Z</time>
      </trkpt>
      <trkpt lat="45.22378" lon="5.80533">
        <ele>239.8</ele>
        <time>2017-04-05T17:30:05Z</time>
      </trkpt>
      <trkpt lat="45.22382" lon="5.80545">
        <ele>239.4</ele>
        <time>2017-04-05T17:30:07Z</time>
      </trkpt>
      <trkpt lat="45.22387" lon="5.80559">
        <ele>238.7</ele>
        <time>2017-04-05T17:30:09Z</time>
      </trkpt>
      <trkpt lat="45.22393" lon="5.80573">
        <ele>238.5</ele>
        <time>2017-04-05T17:30:11Z</time>
      </trkpt>
      <trkpt lat="45.22398" lon="5.80587">
        <ele>238</ele>
        <time>2017-04-05T17:30:13Z</time>
      </trkpt>
      <trkpt lat="45.22403" lon="5.806">
        <ele>236.7</ele>
        <time>2017-04-05T17:30:15Z</time>
      </trkpt>
      <trkpt lat="45.22408" lon="5.80612">
        <ele>235.5</ele>
        <time>2017-04-05T17:30:17Z</time>
      </trkpt>
      <trkpt lat="45.22413" lon="5.80624">
        <ele>234.5</ele>
        <time>2017-04-05T17:30:19Z</time>
      </trkpt>
      <trkpt lat="45.22417" lon="5.80635">
        <ele>233.2</ele>
        <time>2017-04-05T17:30:21Z</time>
      </trkpt>
      <trkpt lat="45.2242" lon="5.80644">
        <ele>233.3</ele>
        <time>2017-04-05T17:30:23Z</time>
      </trkpt>
      <trkpt lat="45.22422" lon="5.80656">
        <ele>233.2</ele>
        <time>2017-04-05T17:30:25Z</time>
      </trkpt>
      <trkpt lat="45.22425" lon="5.80669">
        <ele>233.1</ele>
        <time>2017-04-05T17:30:27Z</time>
      </trkpt>
      <trkpt lat="45.22429" lon="5.80682">
        <ele>233.5</ele>
        <time>2017-04-05T17:30:29Z</time>
      </trkpt>
      <trkpt lat="45.22432" lon="5.80691">
        <ele>233.6</ele>
        <time>2017-04-05T17:30:31Z</time>
      </trkpt>
      <trkpt lat="45.22437" lon="5.807">
        <ele>234</ele>
        <time>2017-04-05T17:30:33Z</time>
      </trkpt>
      <trkpt lat="45.22439" lon="5.8071">
        <ele>234.1</ele>
        <time>2017-04-05T17:30:35Z</time>
      </trkpt>
      <trkpt lat="45.22442" lon="5.8072">
        <ele>234.4</ele>
        <time>2017-04-05T17:30:37Z</time>
      </trkpt>
      <trkpt lat="45.22445" lon="5.80731">
        <ele>235.3</ele>
        <time>2017-04-05T17:30:39Z</time>
      </trkpt>
      <trkpt lat="45.22448" lon="5.80742">
        <ele>236.9</ele>
        <time>2017-04-05T17:30:41Z</time>
      </trkpt>
      <trkpt lat="45.22453" lon="5.80752">
        <ele>237.1</ele>
        <time>2017-04-05T17:30:43Z</time>
      </trkpt>
      <trkpt lat="45.22457" lon="5.80762">
        <ele>237.5</ele>
        <time>2017-04-05T17:30:45Z</time>
      </trkpt>
      <trkpt lat="45.22462" lon="5.80772">
        <ele>237.6</ele>
        <time>2017-04-05T17:30:47Z</time>
      </trkpt>
      <trkpt lat="45.22466" lon="5.80782">
        <ele>237</ele>
        <time>2017-04-05T17:30:49Z</time>
      </trkpt>
      <trkpt lat="45.2247" lon="5.80792">
        <ele>236.8</ele>
        <time>2017-04-05T17:30:51Z</time>
      </trkpt>
      <trkpt lat="45.22473" lon="5.80802">
        <ele>236.8</ele>
        <time>2017-04-05T17:30:53Z</time>
      </trkpt>
      <trkpt lat="45.22477" lon="5.80811">
        <ele>236.8</ele>
        <time>2017-04-05T17:30:55Z</time>
      </trkpt>
      <trkpt lat="45.2248" lon="5.80818">
        <ele>236.9</ele>
        <time>2017-04-05T17:30:57Z</time>
      </trkpt>
      <trkpt lat="45.22484" lon="5.80823">
        <ele>236.8</ele>
        <time>2017-04-05T17:30:59Z</time>
      </trkpt>
      <trkpt lat="45.2249" lon="5.80828">
        <ele>236.6</ele>
        <time>2017-04-05T17:31:01Z</time>
      </trkpt>
      <trkpt lat="45.22494" lon="5.80837">
        <ele>236.5</ele>
        <time>2017-04-05T17:31:03Z</time>
      </trkpt>
      <trkpt lat="45.22498" lon="5.80845">
        <ele>236.6</ele>
        <time>2017-04-05T17:31:05Z</time>
      </trkpt>
      <trkpt lat="45.225" lon="5.80854">
        <ele>236.6</ele>
        <time>2017-04-05T17:31:07Z</time>
      </trkpt>
      <trkpt lat="45.22502" lon="5.80861">
        <ele>236.7</ele>
        <time>2017-04-05T17:31:09Z</time>
      </trkpt>
      <trkpt lat="45.22507" lon="5.8087">
        <ele>236.9</ele>
        <time>2017-04-05T17:31:11Z</time>
      </trkpt>
      <trkpt lat="45.2251" lon="5.80879">
        <ele>237.1</ele>
        <time>2017-04-05T17:31:13Z</time>
      </trkpt>
      <trkpt lat="45.22515" lon="5.80888">
        <ele>237.3</ele>
        <time>2017-04-05T17:31:15Z</time>
      </trkpt>
      <trkpt lat="45.22519" lon="5.80895">
        <ele>237.6</ele>
        <time>2017-04-05T17:31:17Z</time>
      </trkpt>
      <trkpt lat="45.22524" lon="5.80905">
        <ele>237.9</ele>
        <time>2017-04-05T17:31:19Z</time>
      </trkpt>
      <trkpt lat="45.22528" lon="5.80914">
        <ele>238.1</ele>
        <time>2017-04-05T17:31:21Z</time>
      </trkpt>
      <trkpt lat="45.22531" lon="5.80922">
        <ele>238.1</ele>
        <time>2017-04-05T17:31:23Z</time>
      </trkpt>
      <trkpt lat="45.22535" lon="5.8093">
        <ele>238.2</ele>
        <time>2017-04-05T17:31:25Z</time>
      </trkpt>
      <trkpt lat="45.22538" lon="5.80937">
        <ele>238.3</ele>
        <time>2017-04-05T17:31:27Z</time>
      </trkpt>
      <trkpt lat="45.22542" lon="5.80945">
        <ele>238.5</ele>
        <time>2017-04-05T17:31:29Z</time>
      </trkpt>
      <trkpt lat="45.22546" lon="5.80953">
        <ele>238.8</ele>
        <time>2017-04-05T17:31:31Z</time>
      </trkpt>
      <trkpt lat="45.2255" lon="5.80963">
        <ele>239</ele>
        <time>2017-04-05T17:31:33Z</time>
      </trkpt>
      <trkpt lat="45.22554" lon="5.80972">
        <ele>239.2</ele>
        <time>2017-04-05T17:31:35Z</time>
      </trkpt>
      <trkpt lat="45.22553" lon="5.80981">
        <ele>239.5</ele>
        <time>2017-04-05T17:31:37Z</time>
      </trkpt>
      <trkpt lat="45.22548" lon="5.80988">
        <ele>242.5</ele>
        <time>2017-04-05T17:31:39Z</time>
      </trkpt>
      <trkpt lat="45.2254" lon="5.80999">
        <ele>244.6</ele>
        <time>2017-04-05T17:31:41Z</time>
      </trkpt>
      <trkpt lat="45.2253" lon="5.8101">
        <ele>246.1</ele>
        <time>2017-04-05T17:31:43Z</time>
      </trkpt>
      <trkpt lat="45.22518" lon="5.81022">
        <ele>248</ele>
        <time>2017-04-05T17:31:45Z</time>
      </trkpt>
      <trkpt lat="45.22514" lon="5.81034">
        <ele>249.2</ele>
        <time>2017-04-05T17:31:47Z</time>
      </trkpt>
      <trkpt lat="45.22513" lon="5.81049">
        <ele>250</ele>
        <time>2017-04-05T17:31:49Z</time>
      </trkpt>
      <trkpt lat="45.22508" lon="5.81062">
        <ele>250.6</ele>
        <time>2017-04-05T17:31:51Z</time>
      </trkpt>
      <trkpt lat="45.22505" lon="5.81071">
        <ele>250.7</ele>
        <time>2017-04-05T17:31:53Z</time>
      </trkpt>
      <trkpt lat="45.22503" lon="5.81077">
        <ele>250.7</ele>
        <time>2017-04-05T17:31:55Z</time>
      </trkpt>
      <trkpt lat="45.22506" lon="5.81088">
        <ele>250.6</ele>
        <time>2017-04-05T17:32:01Z</time>
      </trkpt>
      <trkpt lat="45.22512" lon="5.81098">
        <ele>250.5</ele>
        <time>2017-04-05T17:32:05Z</time>
      </trkpt>
      <trkpt lat="45.22517" lon="5.81105">
        <ele>250.4</ele>
        <time>2017-04-05T17:32:07Z</time>
      </trkpt>
      <trkpt lat="45.22524" lon="5.81117">
        <ele>250.4</ele>
        <time>2017-04-05T17:32:09Z</time>
      </trkpt>
      <trkpt lat="45.22529" lon="5.81125">
        <ele>250.5</ele>
        <time>2017-04-05T17:32:11Z</time>
      </trkpt>
      <trkpt lat="45.22534" lon="5.81132">
        <ele>250.6</ele>
        <time>2017-04-05T17:32:13Z</time>
      </trkpt>
      <trkpt lat="45.22538" lon="5.81138">
        <ele>250.6</ele>
        <time>2017-04-05T17:32:15Z</time>
      </trkpt>
      <trkpt lat="45.22542" lon="5.81144">
        <ele>250.5</ele>
        <time>2017-04-05T17:32:17Z</time>
      </trkpt>
      <trkpt lat="45.22546" lon="5.81149">
        <ele>250.2</ele>
        <time>2017-04-05T17:32:19Z</time>
      </trkpt>
      <trkpt lat="45.22549" lon="5.81154">
        <ele>249.7</ele>
        <time>2017-04-05T17:32:23Z</time>
      </trkpt>
      <trkpt lat="45.22551" lon="5.81164">
        <ele>249.3</ele>
        <time>2017-04-05T17:32:27Z</time>
      </trkpt>
      <trkpt lat="45.22558" lon="5.81171">
        <ele>249.1</ele>
        <time>2017-04-05T17:32:31Z</time>
      </trkpt>
      <trkpt lat="45.22552" lon="5.81182">
        <ele>249.2</ele>
        <time>2017-04-05T17:32:35Z</time>
      </trkpt>
      <trkpt lat="45.22547" lon="5.81189">
        <ele>249.3</ele>
        <time>2017-04-05T17:32:36Z</time>
      </trkpt>
      <trkpt lat="45.22543" lon="5.81199">
        <ele>249.2</ele>
        <time>2017-04-05T17:32:39Z</time>
      </trkpt>
      <trkpt lat="45.22543" lon="5.81208">
        <ele>249</ele>
        <time>2017-04-05T17:32:40Z</time>
      </trkpt>
      <trkpt lat="45.22547" lon="5.81214">
        <ele>248.9</ele>
        <time>2017-04-05T17:32:42Z</time>
      </trkpt>
      <trkpt lat="45.22552" lon="5.81221">
        <ele>249.2</ele>
        <time>2017-04-05T17:32:44Z</time>
      </trkpt>
      <trkpt lat="45.22556" lon="5.8123">
        <ele>249.3</ele>
        <time>2017-04-05T17:32:46Z</time>
      </trkpt>
      <trkpt lat="45.22561" lon="5.81238">
        <ele>248.6</ele>
        <time>2017-04-05T17:32:48Z</time>
      </trkpt>
      <trkpt lat="45.22565" lon="5.81245">
        <ele>248.5</ele>
        <time>2017-04-05T17:32:50Z</time>
      </trkpt>
      <trkpt lat="45.2257" lon="5.81252">
        <ele>248.4</ele>
        <time>2017-04-05T17:32:52Z</time>
      </trkpt>
      <trkpt lat="45.22576" lon="5.81259">
        <ele>248.9</ele>
        <time>2017-04-05T17:32:54Z</time>
      </trkpt>
      <trkpt lat="45.2258" lon="5.81268">
        <ele>249</ele>
        <time>2017-04-05T17:32:56Z</time>
      </trkpt>
      <trkpt lat="45.22585" lon="5.81278">
        <ele>248.6</ele>
        <time>2017-04-05T17:32:58Z</time>
      </trkpt>
      <trkpt lat="45.2259" lon="5.81289">
        <ele>249.1</ele>
        <time>2017-04-05T17:33:00Z</time>
      </trkpt>
      <trkpt lat="45.22595" lon="5.81301">
        <ele>248.8</ele>
        <time>2017-04-05T17:33:02Z</time>
      </trkpt>
      <trkpt lat="45.226" lon="5.81313">
        <ele>248.9</ele>
        <time>2017-04-05T17:33:04Z</time>
      </trkpt>
      <trkpt lat="45.22605" lon="5.81323">
        <ele>248.1</ele>
        <time>2017-04-05T17:33:06Z</time>
      </trkpt>
      <trkpt lat="45.2261" lon="5.81333">
        <ele>246.5</ele>
        <time>2017-04-05T17:33:08Z</time>
      </trkpt>
      <trkpt lat="45.22612" lon="5.81348">
        <ele>245.9</ele>
        <time>2017-04-05T17:33:10Z</time>
      </trkpt>
      <trkpt lat="45.22612" lon="5.81366">
        <ele>245.5</ele>
        <time>2017-04-05T17:33:12Z</time>
      </trkpt>
      <trkpt lat="45.22611" lon="5.81386">
        <ele>246.1</ele>
        <time>2017-04-05T17:33:14Z</time>
      </trkpt>
      <trkpt lat="45.22611" lon="5.81407">
        <ele>246.2</ele>
        <time>2017-04-05T17:33:16Z</time>
      </trkpt>
      <trkpt lat="45.22613" lon="5.81428">
        <ele>246.6</ele>
        <time>2017-04-05T17:33:18Z</time>
      </trkpt>
      <trkpt lat="45.22615" lon="5.81452">
        <ele>246.2</ele>
        <time>2017-04-05T17:33:20Z</time>
      </trkpt>
      <trkpt lat="45.2261" lon="5.81479">
        <ele>243.8</ele>
        <time>2017-04-05T17:33:22Z</time>
      </trkpt>
      <trkpt lat="45.22603" lon="5.81499">
        <ele>240.1</ele>
        <time>2017-04-05T17:33:24Z</time>
      </trkpt>
      <trkpt lat="45.22595" lon="5.81512">
        <ele>238.6</ele>
        <time>2017-04-05T17:33:26Z</time>
      </trkpt>
      <trkpt lat="45.22587" lon="5.81521">
        <ele>239</ele>
        <time>2017-04-05T17:33:28Z</time>
      </trkpt>
      <trkpt lat="45.22579" lon="5.8153">
        <ele>240.2</ele>
        <time>2017-04-05T17:33:30Z</time>
      </trkpt>
      <trkpt lat="45.22572" lon="5.81541">
        <ele>240.8</ele>
        <time>2017-04-05T17:33:32Z</time>
      </trkpt>
      <trkpt lat="45.22566" lon="5.81551">
        <ele>240.6</ele>
        <time>2017-04-05T17:33:34Z</time>
      </trkpt>
      <trkpt lat="45.22561" lon="5.81557">
        <ele>239.1</ele>
        <time>2017-04-05T17:33:36Z</time>
      </trkpt>
      <trkpt lat="45.22554" lon="5.81569">
        <ele>237.6</ele>
        <time>2017-04-05T17:33:38Z</time>
      </trkpt>
      <trkpt lat="45.22548" lon="5.81583">
        <ele>236.5</ele>
        <time>2017-04-05T17:33:40Z</time>
      </trkpt>
      <trkpt lat="45.22541" lon="5.81597">
        <ele>234.8</ele>
        <time>2017-04-05T17:33:42Z</time>
      </trkpt>
      <trkpt lat="45.22531" lon="5.81616">
        <ele>232</ele>
        <time>2017-04-05T17:33:44Z</time>
      </trkpt>
      <trkpt lat="45.22519" lon="5.81635">
        <ele>232.7</ele>
        <time>2017-04-05T17:33:46Z</time>
      </trkpt>
      <trkpt lat="45.22508" lon="5.81653">
        <ele>233.1</ele>
        <time>2017-04-05T17:33:48Z</time>
      </trkpt>
      <trkpt lat="45.22497" lon="5.8167">
        <ele>234.4</ele>
        <time>2017-04-05T17:33:50Z</time>
      </trkpt>
      <trkpt lat="45.22484" lon="5.81689">
        <ele>234.6</ele>
        <time>2017-04-05T17:33:52Z</time>
      </trkpt>
      <trkpt lat="45.22471" lon="5.81706">
        <ele>234</ele>
        <time>2017-04-05T17:33:54Z</time>
      </trkpt>
      <trkpt lat="45.22462" lon="5.81719">
        <ele>233.9</ele>
        <time>2017-04-05T17:33:56Z</time>
      </trkpt>
      <trkpt lat="45.22457" lon="5.81728">
        <ele>234.2</ele>
        <time>2017-04-05T17:33:58Z</time>
      </trkpt>
      <trkpt lat="45.22453" lon="5.81736">
        <ele>233.6</ele>
        <time>2017-04-05T17:34:00Z</time>
      </trkpt>
      <trkpt lat="45.22447" lon="5.81746">
        <ele>231.4</ele>
        <time>2017-04-05T17:34:02Z</time>
      </trkpt>
      <trkpt lat="45.2244" lon="5.81754">
        <ele>230.2</ele>
        <time>2017-04-05T17:34:04Z</time>
      </trkpt>
      <trkpt lat="45.22437" lon="5.81767">
        <ele>230.4</ele>
        <time>2017-04-05T17:34:06Z</time>
      </trkpt>
      <trkpt lat="45.22434" lon="5.8178">
        <ele>230.5</ele>
        <time>2017-04-05T17:34:08Z</time>
      </trkpt>
      <trkpt lat="45.22434" lon="5.81794">
        <ele>230.2</ele>
        <time>2017-04-05T17:34:10Z</time>
      </trkpt>
      <trkpt lat="45.22438" lon="5.81808">
        <ele>228.4</ele>
        <time>2017-04-05T17:34:12Z</time>
      </trkpt>
      <trkpt lat="45.22442" lon="5.81819">
        <ele>225.9</ele>
        <time>2017-04-05T17:34:14Z</time>
      </trkpt>
      <trkpt lat="45.22447" lon="5.81829">
        <ele>225.2</ele>
        <time>2017-04-05T17:34:16Z</time>
      </trkpt>
      <trkpt lat="45.22446" lon="5.8184">
        <ele>224.7</ele>
        <time>2017-04-05T17:34:18Z</time>
      </trkpt>
      <trkpt lat="45.22449" lon="5.81846">
        <ele>224.5</ele>
        <time>2017-04-05T17:34:20Z</time>
      </trkpt>
      <trkpt lat="45.22456" lon="5.81845">
        <ele>224.3</ele>
        <time>2017-04-05T17:34:22Z</time>
      </trkpt>
      <trkpt lat="45.22464" lon="5.81845">
        <ele>224.2</ele>
        <time>2017-04-05T17:34:24Z</time>
      </trkpt>
      <trkpt lat="45.22472" lon="5.81848">
        <ele>224.1</ele>
        <time>2017-04-05T17:34:26Z</time>
      </trkpt>
      <trkpt lat="45.22481" lon="5.81852">
        <ele>222.8</ele>
        <time>2017-04-05T17:34:28Z</time>
      </trkpt>
      <trkpt lat="45.22488" lon="5.81857">
        <ele>222.2</ele>
        <time>2017-04-05T17:34:30Z</time>
      </trkpt>
      <trkpt lat="45.22495" lon="5.81862">
        <ele>220.9</ele>
        <time>2017-04-05T17:34:32Z</time>
      </trkpt>
      <trkpt lat="45.22499" lon="5.81871">
        <ele>219.9</ele>
        <time>2017-04-05T17:34:34Z</time>
      </trkpt>
      <trkpt lat="45.22491" lon="5.81882">
        <ele>219.1</ele>
        <time>2017-04-05T17:34:36Z</time>
      </trkpt>
      <trkpt lat="45.22484" lon="5.81887">
        <ele>218.5</ele>
        <time>2017-04-05T17:34:38Z</time>
      </trkpt>
      <trkpt lat="45.22479" lon="5.81892">
        <ele>218.3</ele>
        <time>2017-04-05T17:34:40Z</time>
      </trkpt>
      <trkpt lat="45.22476" lon="5.819">
        <ele>218.3</ele>
        <time>2017-04-05T17:34:42Z</time>
      </trkpt>
    </trkseg>
  </trk>
</gpx>